Data Archive--June, 2004

Date Time Heat Index Current Temp Wind Chill High Temp Low Temp Humidity Dew Point Wind Speed Gust Wind Direction Rain Barometer
06/01/2004 12:00 a 57.4 57.4 57.4 57.6 57.3 100 57.4 0.0 0.0 --- 0.00 29.513
06/01/2004 12:30 a 57.3 57.3 57.3 57.3 57.1 100 57.3 0.0 3.0 SSW 0.00 29.525
06/01/2004 1:00 a 56.9 56.9 56.9 57.2 56.8 100 56.9 0.0 2.0 SSW 0.03 29.515
06/01/2004 1:30 a 56.7 56.7 56.7 56.8 56.6 100 56.7 0.0 0.0 --- 0.02 29.515
06/01/2004 2:00 a 56.5 56.5 56.5 56.7 56.3 100 56.5 0.0 2.0 SSW 0.01 29.521
06/01/2004 2:30 a 56.3 56.3 56.3 56.4 56.0 100 56.3 0.0 1.0 SSW 0.01 29.489
06/01/2004 3:00 a 55.7 55.7 55.7 56.0 55.6 100 55.7 0.0 1.0 SSW 0.02 29.484
06/01/2004 3:30 a 55.5 55.5 55.5 55.6 55.4 100 55.5 0.0 2.0 SSE 0.00 29.494
06/01/2004 4:00 a 55.4 55.4 55.4 55.4 55.3 100 55.4 0.0 2.0 SSE 0.00 29.508
06/01/2004 4:30 a 55.4 55.4 55.4 55.5 55.3 100 55.4 0.0 1.0 --- 0.00 29.510
06/01/2004 5:00 a 55.3 55.3 55.3 55.4 55.2 100 55.3 0.0 0.0 --- 0.00 29.512
06/01/2004 5:30 a 55.4 55.4 55.4 55.4 55.3 100 55.4 0.0 0.0 --- 0.00 29.520
06/01/2004 6:00 a 55.5 55.5 55.5 55.6 55.4 100 55.5 0.0 0.0 --- 0.00 29.528
06/01/2004 6:30 a 55.7 55.7 55.7 55.9 55.5 100 55.7 0.0 1.0 --- 0.00 29.536
06/01/2004 7:00 a 56.1 56.1 56.1 56.3 55.8 100 56.1 0.0 1.0 --- 0.00 29.537
06/01/2004 7:30 a 56.4 56.4 56.4 56.6 56.2 100 56.4 0.0 1.0 SSE 0.00 29.546
06/01/2004 8:00 a 56.8 56.8 56.8 57.5 56.6 100 56.8 0.0 0.0 --- 0.00 29.550
06/01/2004 8:30 a 57.8 57.8 57.8 58.1 57.5 100 57.8 0.0 0.0 --- 0.00 29.552
06/01/2004 9:00 a 58.6 58.6 58.6 59.0 58.2 100 58.6 0.0 0.0 --- 0.00 29.561
06/01/2004 9:30 a 59.1 59.1 59.1 59.3 58.8 100 59.1 0.0 0.0 --- 0.00 29.562
06/01/2004 10:00 a 59.5 59.5 59.5 59.7 59.2 100 59.5 0.0 0.0 --- 0.00 29.562
06/01/2004 10:30 a 60.1 60.1 60.1 60.6 59.7 100 60.1 0.0 0.0 --- 0.00 29.565
06/01/2004 11:00 a 60.8 60.8 60.8 60.9 60.6 100 60.8 0.0 0.0 --- 0.00 29.570
06/01/2004 11:30 a 61.0 61.0 61.0 61.8 60.7 100 61.0 0.0 0.0 --- 0.00 29.573
06/01/2004 12:00 p 63.0 63.0 63.0 65.1 61.8 100 63.0 0.0 1.0 --- 0.00 29.564
06/01/2004 12:30 p 65.7 65.7 65.7 67.6 64.9 100 65.7 0.0 2.0 SSE 0.00 29.568
06/01/2004 1:00 p 73.8 70.7 70.7 74.9 67.7 94 68.9 0.0 3.0 S 0.00 29.555
06/01/2004 1:30 p 78.1 74.7 74.7 76.6 72.9 91 71.9 0.0 2.0 SSE 0.00 29.541
06/01/2004 2:00 p 82.7 77.5 77.5 81.4 73.9 87 73.3 0.0 3.0 SSE 0.00 29.529
06/01/2004 2:30 p 86.6 83.2 83.2 85.4 80.5 64 69.8 0.0 3.0 WNW 0.00 29.514
06/01/2004 3:00 p 80.8 78.6 78.6 80.7 75.8 59 63.1 0.0 2.0 WNW 0.00 29.499
06/01/2004 3:30 p 86.3 83.8 83.8 87.7 79.1 53 64.9 0.0 2.0 WNW 0.00 29.498
06/01/2004 4:00 p 86.1 83.6 83.6 85.8 81.2 51 63.6 0.0 2.0 ENE 0.00 29.477
06/01/2004 4:30 p 81.2 79.9 79.9 82.9 78.5 56 62.8 0.0 1.0 E 0.00 29.487
06/01/2004 5:00 p 75.0 75.1 75.1 78.4 73.6 59 59.8 0.0 1.0 N 0.00 29.497
06/01/2004 5:30 p 72.8 72.3 72.3 74.6 68.5 74 63.6 0.0 2.0 ESE 0.00 29.512
06/01/2004 6:00 p 60.5 60.5 60.5 68.5 56.1 100 60.5 1.0 7.0 WSW 0.21 29.573
06/01/2004 6:30 p 56.4 56.4 56.4 57.2 56.0 100 56.4 0.0 1.0 WSW 0.14 29.546
06/01/2004 7:00 p 58.0 58.0 58.0 58.4 57.2 100 58.0 0.0 2.0 WSW 0.08 29.563
06/01/2004 7:30 p 58.8 58.8 58.8 59.1 58.4 100 58.8 0.0 0.0 --- 0.02 29.571
06/01/2004 8:00 p 58.7 58.7 58.7 58.8 58.5 100 58.7 0.0 0.0 --- 0.00 29.582
06/01/2004 8:30 p 58.4 58.4 58.4 58.8 58.0 100 58.4 0.0 0.0 --- 0.00 29.587
06/01/2004 9:00 p 57.6 57.6 57.6 58.0 57.3 100 57.6 0.0 0.0 --- 0.00 29.599
06/01/2004 9:30 p 57.3 57.3 57.3 57.5 56.8 100 57.3 0.0 0.0 --- 0.00 29.609
06/01/2004 10:00 p 56.8 56.8 56.8 57.0 56.6 100 56.8 0.0 0.0 --- 0.00 29.604
06/01/2004 10:30 p 56.8 56.8 56.8 56.9 56.6 100 56.8 0.0 0.0 --- 0.00 29.603
06/01/2004 11:00 p 56.7 56.7 56.7 56.9 56.5 100 56.7 0.0 0.0 --- 0.00 29.615
06/01/2004 11:30 p 56.3 56.3 56.3 56.7 55.9 100 56.3 0.0 0.0 --- 0.00 29.611
06/02/2004 12:00 a 55.7 55.7 55.7 55.9 55.5 100 55.7 0.0 0.0 --- 0.00 29.614
06/02/2004 12:30 a 55.5 55.5 55.5 55.7 55.5 100 55.5 0.0 0.0 --- 0.00 29.611
06/02/2004 1:00 a 55.3 55.3 55.3 55.5 55.1 100 55.3 0.0 0.0 --- 0.00 29.602
06/02/2004 1:30 a 54.7 54.7 54.7 55.1 54.4 100 54.7 0.0 0.0 --- 0.00 29.604
06/02/2004 2:00 a 54.5 54.5 54.5 54.6 54.3 100 54.5 0.0 0.0 --- 0.00 29.606
06/02/2004 2:30 a 54.3 54.3 54.3 54.6 54.1 100 54.3 0.0 0.0 --- 0.00 29.602
06/02/2004 3:00 a 54.6 54.6 54.6 54.8 54.2 100 54.6 0.0 0.0 --- 0.00 29.606
06/02/2004 3:30 a 54.3 54.3 54.3 54.7 53.9 100 54.3 0.0 0.0 --- 0.00 29.613
06/02/2004 4:00 a 53.6 53.6 53.6 53.9 53.5 100 53.6 0.0 0.0 --- 0.00 29.620
06/02/2004 4:30 a 53.5 53.5 53.5 53.7 53.4 100 53.5 0.0 0.0 --- 0.00 29.626
06/02/2004 5:00 a 53.4 53.4 53.4 53.5 53.2 100 53.4 0.0 0.0 --- 0.00 29.626
06/02/2004 5:30 a 53.1 53.1 53.1 53.2 53.0 100 53.1 0.0 0.0 --- 0.00 29.627
06/02/2004 6:00 a 53.2 53.2 53.2 53.3 53.1 100 53.2 0.0 2.0 WSW 0.00 29.634
06/02/2004 6:30 a 53.1 53.1 53.1 53.4 53.0 100 53.1 0.0 0.0 --- 0.00 29.645
06/02/2004 7:00 a 54.2 54.2 54.2 55.0 53.4 100 54.2 0.0 0.0 --- 0.00 29.654
06/02/2004 7:30 a 58.2 58.2 58.2 61.2 55.1 100 58.2 0.0 0.0 --- 0.00 29.659
06/02/2004 8:00 a 60.7 60.7 60.7 61.4 60.0 100 60.7 0.0 0.0 --- 0.00 29.660
06/02/2004 8:30 a 62.1 62.1 62.1 63.0 60.5 100 62.1 0.0 0.0 --- 0.00 29.662
06/02/2004 9:00 a 61.6 61.6 61.6 62.1 61.4 100 61.6 0.0 1.0 --- 0.00 29.662
06/02/2004 9:30 a 62.9 62.9 62.9 64.3 61.5 100 62.9 0.0 2.0 E 0.00 29.660
06/02/2004 10:00 a 65.4 65.4 65.4 66.3 64.3 100 65.4 0.0 2.0 SE 0.00 29.656
06/02/2004 10:30 a 67.7 67.7 67.7 68.9 66.3 100 67.7 0.0 3.0 NW 0.00 29.656
06/02/2004 11:00 a 74.0 70.1 70.1 72.0 68.9 100 70.1 0.0 4.0 W 0.00 29.663
06/02/2004 11:30 a 76.0 72.1 72.1 72.3 71.7 100 72.1 0.0 3.0 ENE 0.00 29.657
06/02/2004 12:00 p 76.8 73.7 73.7 75.1 72.3 94 71.9 0.0 5.0 SW 0.00 29.651
06/02/2004 12:30 p 79.9 76.4 76.4 77.9 75.1 89 72.9 0.0 4.0 SW 0.00 29.663
06/02/2004 1:00 p 78.3 76.3 76.3 78.4 74.3 73 67.0 0.0 4.0 WSW 0.00 29.669
06/02/2004 1:30 p 83.9 82.4 82.4 85.7 77.9 59 66.6 0.0 4.0 SW 0.00 29.663
06/02/2004 2:00 p 85.2 84.7 84.7 90.0 79.6 41 58.4 0.0 4.0 WSW 0.00 29.659
06/02/2004 2:30 p 91.6 90.6 90.6 92.1 89.0 33 57.6 0.0 5.0 WSW 0.00 29.653
06/02/2004 3:00 p 89.9 89.6 89.6 92.3 85.1 33 56.7 0.0 4.0 SSW 0.00 29.647
06/02/2004 3:30 p 85.6 88.2 88.2 91.4 85.1 28 51.0 0.0 3.0 SSW 0.00 29.638
06/02/2004 4:00 p 89.9 90.4 90.4 92.6 86.8 33 57.4 0.0 4.0 W 0.00 29.633
06/02/2004 4:30 p 86.8 87.3 87.3 88.8 82.3 39 59.3 0.0 2.0 WSW 0.00 29.635
06/02/2004 5:00 p 78.0 77.8 77.8 82.2 75.0 50 57.7 0.0 1.0 S 0.00 29.643
06/02/2004 5:30 p 70.0 68.4 68.4 75.0 62.8 98 67.8 0.0 5.0 WSW 0.02 29.686
06/02/2004 6:00 p 63.0 63.0 63.0 63.9 62.7 100 63.0 0.0 1.0 SSW 0.01 29.673
06/02/2004 6:30 p 65.9 65.9 65.9 67.1 63.9 100 65.9 0.0 0.0 --- 0.00 29.673
06/02/2004 7:00 p 66.2 66.2 66.2 67.0 65.8 100 66.2 0.0 0.0 --- 0.00 29.686
06/02/2004 7:30 p 65.2 65.2 65.2 65.9 64.6 100 65.2 0.0 0.0 --- 0.00 29.712
06/02/2004 8:00 p 65.0 65.0 65.0 65.3 64.6 100 65.0 0.0 5.0 SSW 0.00 29.723
06/02/2004 8:30 p 64.3 64.3 64.3 65.2 63.3 100 64.3 0.0 1.0 SSW 0.00 29.733
06/02/2004 9:00 p 62.4 62.4 62.4 63.3 62.0 100 62.4 0.0 1.0 SSW 0.00 29.731
06/02/2004 9:30 p 61.7 61.7 61.7 62.0 61.5 100 61.7 0.0 0.0 --- 0.00 29.745
06/02/2004 10:00 p 61.2 61.2 61.2 61.6 60.9 100 61.2 0.0 0.0 --- 0.00 29.755
06/02/2004 10:30 p 61.0 61.0 61.0 61.1 60.9 100 61.0 0.0 0.0 --- 0.00 29.749
06/02/2004 11:00 p 60.6 60.6 60.6 60.9 60.0 100 60.6 0.0 0.0 --- 0.00 29.743
06/02/2004 11:30 p 59.5 59.5 59.5 60.1 58.9 100 59.5 0.0 0.0 --- 0.00 29.739
06/03/2004 12:00 a 58.4 58.4 58.4 58.9 58.0 100 58.4 0.0 0.0 --- 0.00 29.741
06/03/2004 12:30 a 57.7 57.7 57.7 58.0 57.4 100 57.7 0.0 0.0 --- 0.00 29.744
06/03/2004 1:00 a 57.6 57.6 57.6 57.7 57.4 100 57.6 0.0 0.0 --- 0.00 29.751
06/03/2004 1:30 a 58.0 58.0 58.0 58.5 57.6 100 58.0 0.0 0.0 --- 0.00 29.748
06/03/2004 2:00 a 58.5 58.5 58.5 58.7 58.5 100 58.5 0.0 0.0 --- 0.00 29.742
06/03/2004 2:30 a 58.8 58.8 58.8 58.9 58.5 100 58.8 0.0 0.0 --- 0.00 29.738
06/03/2004 3:00 a 57.7 57.7 57.7 58.5 57.4 100 57.7 0.0 0.0 --- 0.00 29.737
06/03/2004 3:30 a 57.6 57.6 57.6 57.7 57.4 100 57.6 0.0 0.0 --- 0.00 29.745
06/03/2004 4:00 a 58.0 58.0 58.0 58.5 57.7 100 58.0 0.0 0.0 --- 0.00 29.757
06/03/2004 4:30 a 58.8 58.8 58.8 58.9 58.5 100 58.8 0.0 0.0 --- 0.00 29.758
06/03/2004 5:00 a 58.6 58.6 58.6 58.8 58.5 100 58.6 0.0 0.0 --- 0.00 29.766
06/03/2004 5:30 a 58.4 58.4 58.4 58.5 58.4 100 58.4 0.0 0.0 --- 0.00 29.776
06/03/2004 6:00 a 58.6 58.6 58.6 58.7 58.4 100 58.6 0.0 0.0 --- 0.00 29.797
06/03/2004 6:30 a 58.5 58.5 58.5 58.6 58.5 100 58.5 0.0 0.0 --- 0.02 29.805
06/03/2004 7:00 a 58.6 58.6 58.6 58.7 58.5 100 58.6 0.0 0.0 --- 0.02 29.811
06/03/2004 7:30 a 59.0 59.0 59.0 59.2 58.7 100 59.0 0.0 1.0 --- 0.00 29.829
06/03/2004 8:00 a 59.6 59.6 59.6 60.7 59.2 100 59.6 0.0 0.0 --- 0.00 29.841
06/03/2004 8:30 a 61.3 61.3 61.3 61.9 60.7 100 61.3 0.0 3.0 WSW 0.00 29.852
06/03/2004 9:00 a 61.9 61.9 61.9 62.2 61.4 100 61.9 0.0 2.0 WSW 0.00 29.859
06/03/2004 9:30 a 62.3 62.3 62.3 63.1 61.8 100 62.3 0.0 4.0 WSW 0.00 29.863
06/03/2004 10:00 a 63.6 63.6 63.6 64.6 62.9 100 63.6 1.0 5.0 WSW 0.00 29.863
06/03/2004 10:30 a 65.4 65.4 65.4 66.8 64.6 97 64.5 0.0 5.0 SW 0.00 29.861
06/03/2004 11:00 a 67.5 67.5 67.5 68.9 66.7 91 64.8 1.0 4.0 SW 0.00 29.863
06/03/2004 11:30 a 71.1 68.8 68.8 69.4 68.3 91 66.1 0.0 6.0 SW 0.00 29.866
06/03/2004 12:00 p 73.0 70.8 70.8 71.8 69.4 86 66.4 1.0 9.0 WSW 0.00 29.865
06/03/2004 12:30 p 74.0 73.6 73.6 75.7 71.4 53 55.4 1.0 6.0 SW 0.00 29.866
06/03/2004 1:00 p 79.0 80.1 80.1 85.5 75.7 35 50.0 1.0 5.0 SW 0.00 29.863
06/03/2004 1:30 p 82.6 83.5 83.5 86.6 79.1 33 51.4 1.0 6.0 WSW 0.00 29.856
06/03/2004 2:00 p 84.4 86.7 86.7 88.8 82.4 27 48.8 0.0 5.0 WSW 0.00 29.845
06/03/2004 2:30 p 84.4 86.5 86.5 89.0 84.8 27 48.6 1.0 6.0 WSW 0.00 29.843
06/03/2004 3:00 p 86.0 88.6 88.6 89.8 86.1 25 48.3 1.0 6.0 WSW 0.00 29.845
06/03/2004 3:30 p 84.8 88.2 88.2 90.2 85.2 24 46.9 1.0 5.0 WSW 0.00 29.847
06/03/2004 4:00 p 85.8 89.3 89.3 90.3 88.2 24 47.8 1.0 5.0 WSW 0.00 29.853
06/03/2004 4:30 p 84.4 86.8 86.8 89.1 83.5 27 48.8 1.0 6.0 WSW 0.00 29.849
06/03/2004 5:00 p 78.0 79.8 79.8 83.4 78.6 28 43.8 0.0 4.0 WSW 0.00 29.855
06/03/2004 5:30 p 79.4 80.8 80.8 84.2 76.3 32 48.2 0.0 5.0 SW 0.00 29.853
06/03/2004 6:00 p 74.0 75.9 75.9 76.3 75.7 34 45.5 1.0 6.0 WSW 0.00 29.858
06/03/2004 6:30 p 73.0 74.9 74.9 75.7 74.0 38 47.6 0.0 3.0 SSW 0.00 29.862
06/03/2004 7:00 p 72.0 73.7 73.7 74.0 73.5 40 47.9 0.0 3.0 WNW 0.00 29.883
06/03/2004 7:30 p 71.6 72.9 72.9 73.8 72.1 43 49.1 0.0 0.0 --- 0.00 29.889
06/03/2004 8:00 p 70.6 71.6 71.6 72.0 70.6 46 49.7 0.0 0.0 --- 0.00 29.899
06/03/2004 8:30 p 68.6 69.0 69.0 70.6 67.2 58 53.6 0.0 0.0 --- 0.00 29.911
06/03/2004 9:00 p 66.2 66.2 66.2 67.1 65.0 65 54.1 0.0 0.0 --- 0.00 29.919
06/03/2004 9:30 p 63.9 63.9 63.9 65.0 62.8 69 53.5 0.0 0.0 --- 0.00 29.938
06/03/2004 10:00 p 62.0 62.0 62.0 62.8 61.2 73 53.3 0.0 0.0 --- 0.00 29.950
06/03/2004 10:30 p 60.7 60.7 60.7 61.2 59.9 78 53.8 0.0 0.0 --- 0.00 29.962
06/03/2004 11:00 p 59.6 59.6 59.6 60.0 59.1 83 54.4 0.0 0.0 --- 0.00 29.972
06/03/2004 11:30 p 58.6 58.6 58.6 59.1 58.4 85 54.1 0.0 0.0 --- 0.00 29.981
06/04/2004 12:00 a 58.1 58.1 58.1 58.4 57.9 84 53.3 0.0 0.0 --- 0.00 29.987
06/04/2004 12:30 a 58.3 58.3 58.3 59.0 57.9 75 50.4 0.0 0.0 --- 0.00 29.996
06/04/2004 1:00 a 59.1 59.1 59.1 59.2 58.8 75 51.2 0.0 0.0 --- 0.00 30.003
06/04/2004 1:30 a 58.4 58.4 58.4 58.9 58.0 75 50.5 0.0 0.0 --- 0.00 30.011
06/04/2004 2:00 a 57.7 57.7 57.7 58.0 57.2 78 50.9 0.0 0.0 --- 0.00 30.017
06/04/2004 2:30 a 56.6 56.6 56.6 57.2 56.1 81 50.8 0.0 0.0 --- 0.00 30.020
06/04/2004 3:00 a 55.6 55.6 55.6 56.1 55.0 84 50.8 0.0 0.0 --- 0.00 30.025
06/04/2004 3:30 a 54.4 54.4 54.4 55.0 53.9 86 50.3 0.0 0.0 --- 0.00 30.032
06/04/2004 4:00 a 53.7 53.7 53.7 53.9 53.5 87 49.9 0.0 0.0 --- 0.00 30.037
06/04/2004 4:30 a 53.6 53.6 53.6 53.7 53.3 89 50.4 0.0 0.0 --- 0.00 30.035
06/04/2004 5:00 a 52.9 52.9 52.9 53.3 52.4 89 49.8 0.0 0.0 --- 0.00 30.046
06/04/2004 5:30 a 52.0 52.0 52.0 52.4 51.6 91 49.5 0.0 0.0 --- 0.00 30.059
06/04/2004 6:00 a 51.4 51.4 51.4 51.6 51.2 91 48.9 0.0 0.0 --- 0.00 30.067
06/04/2004 6:30 a 51.4 51.4 51.4 51.6 51.2 91 48.9 0.0 0.0 --- 0.00 30.077
06/04/2004 7:00 a 52.6 52.6 52.6 53.8 51.6 86 48.5 0.0 0.0 --- 0.00 30.079
06/04/2004 7:30 a 58.6 58.6 58.6 67.0 53.8 53 41.5 0.0 0.0 --- 0.00 30.084
06/04/2004 8:00 a 66.8 66.8 66.8 69.9 64.2 56 50.6 0.0 0.0 --- 0.00 30.088
06/04/2004 8:30 a 64.7 64.7 64.7 66.0 63.7 54 47.7 0.0 0.0 --- 0.00 30.094
06/04/2004 9:00 a 64.7 64.7 64.7 65.2 64.0 55 48.2 0.0 2.0 W 0.00 30.095
06/04/2004 9:30 a 65.5 65.5 65.5 65.9 64.7 44 43.0 0.0 3.0 WSW 0.00 30.090
06/04/2004 10:00 a 66.5 66.5 66.5 67.1 65.9 43 43.3 0.0 3.0 WSW 0.00 30.089
06/04/2004 10:30 a 67.6 67.6 67.6 68.2 67.0 39 41.8 0.0 4.0 WSW 0.00 30.092
06/04/2004 11:00 a 66.6 68.8 68.8 70.6 68.0 38 42.2 0.0 4.0 WSW 0.00 30.093
06/04/2004 11:30 a 68.0 70.3 70.3 70.5 70.0 40 44.9 0.0 3.0 SE 0.00 30.086
06/04/2004 12:00 p 67.8 71.0 71.0 72.3 69.9 34 41.2 0.0 3.0 SSW 0.00 30.079
06/04/2004 12:30 p 72.0 73.6 73.6 75.1 72.0 35 44.3 0.0 3.0 SW 0.00 30.070
06/04/2004 1:00 p 77.0 78.6 78.6 81.5 75.1 27 41.9 1.0 4.0 ESE 0.00 30.067
06/04/2004 1:30 p 81.0 82.5 82.5 83.5 80.5 27 45.2 0.0 4.0 E 0.00 30.066
06/04/2004 2:00 p 80.0 82.1 82.1 83.0 81.1 29 46.7 1.0 5.0 E 0.00 30.059
06/04/2004 2:30 p 80.0 81.5 81.5 82.1 80.6 30 47.1 0.0 4.0 W 0.00 30.055
06/04/2004 3:00 p 79.4 80.8 80.8 82.2 78.7 32 48.2 0.0 4.0 E 0.00 30.045
06/04/2004 3:30 p 78.2 80.0 80.0 81.3 78.5 31 46.7 0.0 3.0 E 0.00 30.042
06/04/2004 4:00 p 75.0 77.4 77.4 79.4 75.2 39 50.5 0.0 2.0 ESE 0.00 30.031
06/04/2004 4:30 p 73.2 75.2 75.2 75.9 73.6 41 49.9 0.0 3.0 W 0.00 30.026
06/04/2004 5:00 p 70.4 72.1 72.1 73.6 71.1 44 49.0 0.0 5.0 ENE 0.00 30.029
06/04/2004 5:30 p 69.0 70.9 70.9 71.2 70.3 46 49.1 0.0 3.0 E 0.00 30.029
06/04/2004 6:00 p 67.0 69.2 69.2 70.3 68.5 47 48.1 1.0 3.0 E 0.00 30.024
06/04/2004 6:30 p 66.0 68.2 68.2 68.5 67.8 48 47.8 0.0 3.0 E 0.00 30.026
06/04/2004 7:00 p 67.4 67.4 67.4 67.9 66.9 51 48.7 0.0 2.0 E 0.00 30.022
06/04/2004 11:30 p 58.5 58.5 58.5 58.5 58.4 76 51.0 0.0 0.0 --- 0.00 30.013
06/05/2004 12:00 a 58.3 58.3 58.3 58.4 58.3 76 50.8 0.0 0.0 --- 0.00 30.005
06/05/2004 12:30 a 58.4 58.4 58.4 58.5 58.3 82 52.9 0.0 0.0 --- 0.00 30.001
06/05/2004 1:00 a 58.7 58.7 58.7 59.0 58.4 84 53.9 0.0 0.0 --- 0.00 29.997
06/05/2004 1:30 a 59.0 59.0 59.0 59.1 58.9 83 53.9 0.0 0.0 --- 0.00 30.000
06/05/2004 2:00 a 59.1 59.1 59.1 59.2 59.1 84 54.3 0.0 0.0 --- 0.00 29.992
06/05/2004 2:30 a 59.2 59.2 59.2 59.2 59.1 79 52.7 0.0 0.0 --- 0.00 29.985
06/05/2004 3:00 a 58.9 58.9 58.9 59.1 58.7 80 52.8 0.0 0.0 --- 0.00 29.976
06/05/2004 3:30 a 58.6 58.6 58.6 58.8 58.5 83 53.5 0.0 0.0 --- 0.00 29.979
06/05/2004 4:00 a 58.5 58.5 58.5 58.5 58.4 82 53.0 0.0 0.0 --- 0.00 29.963
06/05/2004 4:30 a 58.6 58.6 58.6 58.8 58.4 80 52.5 0.0 0.0 --- 0.00 29.964
06/05/2004 5:00 a 58.8 58.8 58.8 58.9 58.7 82 53.3 0.0 0.0 --- 0.00 29.961
06/05/2004 5:30 a 58.0 58.0 58.0 58.7 57.6 84 53.2 0.0 0.0 --- 0.00 29.962
06/05/2004 6:00 a 57.9 57.9 57.9 58.0 57.8 87 54.1 0.0 0.0 --- 0.00 29.980
06/05/2004 6:30 a 57.7 57.7 57.7 57.9 57.5 90 54.8 0.0 0.0 --- 0.00 29.994
06/05/2004 7:00 a 57.6 57.6 57.6 57.7 57.5 88 54.1 0.0 0.0 --- 0.00 30.006
06/05/2004 7:30 a 58.2 58.2 58.2 58.8 57.7 82 52.7 0.0 0.0 --- 0.00 29.978
06/05/2004 8:00 a 59.5 59.5 59.5 60.6 58.8 81 53.7 0.0 0.0 --- 0.00 29.995
06/05/2004 8:30 a 60.9 60.9 60.9 61.5 60.6 72 51.8 0.0 0.0 --- 0.00 29.978
06/05/2004 9:00 a 63.2 63.2 63.2 64.5 61.5 63 50.4 0.0 3.0 SW 0.00 29.979
06/05/2004 9:30 a 64.6 64.6 64.6 65.1 64.3 63 51.7 0.0 3.0 S 0.00 29.979
06/05/2004 10:00 a 64.9 64.9 64.9 65.2 64.6 62 51.6 0.0 5.0 SSW 0.00 29.978
06/05/2004 10:30 a 65.1 65.1 65.1 65.3 64.9 60 50.9 0.0 3.0 SW 0.00 29.974
06/05/2004 11:00 a 63.9 63.9 63.9 65.0 63.4 64 51.5 0.0 2.0 S 0.00 29.981
06/05/2004 11:30 a 63.0 63.0 63.0 63.9 61.9 76 55.3 0.0 4.0 ESE 0.00 29.978
06/05/2004 12:00 p 61.9 61.9 61.9 63.1 61.4 71 52.4 0.0 0.0 --- 0.00 29.971
06/05/2004 12:30 p 63.3 63.3 63.3 63.6 63.0 62 50.1 0.0 4.0 SSW 0.00 29.975
06/05/2004 1:00 p 62.8 62.8 62.8 63.1 61.9 66 51.3 0.0 3.0 SSW 0.00 29.963
06/05/2004 1:30 p 61.9 61.9 61.9 62.4 61.4 61 48.3 0.0 3.0 S 0.00 29.957
06/05/2004 2:00 p 60.8 60.8 60.8 62.4 59.6 73 52.1 0.0 4.0 SW 0.00 29.960
06/05/2004 2:30 p 58.5 58.5 58.5 59.8 55.9 99 58.2 0.0 3.0 SW 0.05 29.962
06/05/2004 3:00 p 55.7 55.7 55.7 55.9 55.4 100 55.7 0.0 4.0 SSW 0.01 29.963
06/05/2004 3:30 p 55.7 55.7 55.7 56.3 55.4 100 55.7 0.0 3.0 WSW 0.00 29.964
06/05/2004 4:00 p 56.5 56.5 56.5 56.8 56.3 100 56.5 0.0 2.0 WSW 0.00 29.956
06/05/2004 4:30 p 57.1 57.1 57.1 57.5 56.8 100 57.1 0.0 1.0 --- 0.00 29.947
06/05/2004 5:00 p 57.8 57.8 57.8 58.1 57.5 100 57.8 0.0 2.0 SSW 0.00 29.948
06/05/2004 5:30 p 58.1 58.1 58.1 58.2 58.0 100 58.1 0.0 2.0 SSW 0.00 29.944
06/05/2004 6:00 p 58.4 58.4 58.4 58.6 58.1 100 58.4 0.0 0.0 --- 0.00 29.938
06/05/2004 6:30 p 58.6 58.6 58.6 58.8 58.4 100 58.6 0.0 2.0 SSW 0.00 29.936
06/05/2004 7:00 p 59.0 59.0 59.0 59.2 58.8 97 58.2 0.0 3.0 WSW 0.00 29.941
06/05/2004 7:30 p 59.4 59.4 59.4 59.5 59.1 96 58.3 0.0 2.0 SSW 0.00 29.943
06/05/2004 8:00 p 59.3 59.3 59.3 59.4 59.2 95 57.9 0.0 2.0 SW 0.00 29.932
06/05/2004 8:30 p 59.2 59.2 59.2 59.3 59.1 96 58.1 0.0 2.0 WSW 0.00 29.929
06/05/2004 9:00 p 59.0 59.0 59.0 59.2 58.8 95 57.6 0.0 1.0 --- 0.00 29.922
06/05/2004 9:30 p 58.8 58.8 58.8 58.9 58.7 96 57.7 0.0 2.0 WSW 0.00 29.934
06/05/2004 10:00 p 58.9 58.9 58.9 59.0 58.9 94 57.2 0.0 0.0 --- 0.00 29.931
06/05/2004 10:30 p 59.0 59.0 59.0 59.1 58.9 94 57.3 0.0 0.0 --- 0.00 29.932
06/05/2004 11:00 p 59.0 59.0 59.0 59.2 58.4 96 57.9 0.0 0.0 --- 0.00 29.929
06/05/2004 11:30 p 58.4 58.4 58.4 58.9 58.2 96 57.3 0.0 1.0 --- 0.00 29.929
06/06/2004 12:00 a 59.2 59.2 59.2 59.4 58.9 92 56.9 0.0 0.0 --- 0.00 29.925
06/06/2004 12:30 a 59.5 59.5 59.5 59.6 59.3 91 56.9 0.0 0.0 --- 0.00 29.923
06/06/2004 1:00 a 59.7 59.7 59.7 59.8 59.6 88 56.1 0.0 1.0 SE 0.00 29.921
06/06/2004 1:30 a 59.9 59.9 59.9 59.9 59.8 87 56.0 0.0 1.0 SSE 0.00 29.913
06/06/2004 2:00 a 59.9 59.9 59.9 59.9 59.8 85 55.4 0.0 1.0 --- 0.00 29.911
06/06/2004 2:30 a 59.7 59.7 59.7 59.8 59.6 84 54.9 0.0 3.0 SSW 0.00 29.910
06/06/2004 3:00 a 59.4 59.4 59.4 59.6 59.2 82 53.9 0.0 2.0 SSW 0.00 29.907
06/06/2004 3:30 a 59.0 59.0 59.0 59.2 58.5 86 54.8 0.0 4.0 SSW 0.00 29.906
06/06/2004 4:00 a 56.9 56.9 56.9 58.5 55.9 100 56.9 0.0 1.0 SW 0.01 29.908
06/06/2004 4:30 a 55.7 55.7 55.7 55.9 55.5 100 55.7 0.0 0.0 --- 0.00 29.900
06/06/2004 5:00 a 55.5 55.5 55.5 55.5 55.5 100 55.5 0.0 2.0 SSE 0.00 29.902
06/06/2004 5:30 a 55.4 55.4 55.4 55.5 55.4 100 55.4 0.0 1.0 --- 0.00 29.907
06/06/2004 6:00 a 55.3 55.3 55.3 55.4 55.1 100 55.3 0.0 1.0 SSW 0.00 29.924
06/06/2004 6:30 a 54.9 54.9 54.9 55.1 54.7 100 54.9 0.0 1.0 SSW 0.00 29.931
06/06/2004 7:00 a 54.5 54.5 54.5 54.7 54.4 100 54.5 0.0 1.0 --- 0.00 29.927
06/06/2004 7:30 a 54.3 54.3 54.3 54.4 54.2 100 54.3 0.0 1.0 SSW 0.00 29.928
06/06/2004 8:00 a 54.1 54.1 54.1 54.3 54.0 100 54.1 0.0 1.0 SSW 0.01 29.937
06/06/2004 8:30 a 54.2 54.2 54.2 54.4 54.0 100 54.2 0.0 3.0 SSW 0.02 29.936
06/06/2004 9:00 a 54.5 54.5 54.5 54.7 54.3 100 54.5 0.0 2.0 SSW 0.04 29.937
06/06/2004 9:30 a 55.2 55.2 55.2 55.8 54.7 100 55.2 0.0 0.0 --- 0.00 29.929
06/06/2004 10:00 a 56.3 56.3 56.3 56.6 55.8 100 56.3 0.0 2.0 SSW 0.01 29.928
06/06/2004 10:30 a 56.3 56.3 56.3 56.5 56.1 100 56.3 0.0 2.0 SSW 0.00 29.925
06/06/2004 11:00 a 56.4 56.4 56.4 56.6 56.2 100 56.4 0.0 4.0 SSW 0.00 29.931
06/06/2004 11:30 a 56.9 56.9 56.9 57.4 56.5 100 56.9 0.0 1.0 --- 0.00 29.930
06/06/2004 12:00 p 57.7 57.7 57.7 58.0 57.4 100 57.7 0.0 1.0 SE 0.00 29.929
06/06/2004 12:30 p 57.7 57.7 57.7 57.9 57.5 100 57.7 0.0 2.0 S 0.00 29.923
06/06/2004 1:00 p 57.7 57.7 57.7 57.8 57.6 100 57.7 0.0 2.0 S 0.00 29.928
06/06/2004 1:30 p 57.6 57.6 57.6 57.8 57.4 100 57.6 0.0 1.0 S 0.00 29.922
06/06/2004 2:00 p 58.1 58.1 58.1 58.3 57.8 100 58.1 0.0 1.0 S 0.00 29.926
06/06/2004 2:30 p 57.9 57.9 57.9 58.1 57.8 100 57.9 0.0 0.0 --- 0.00 29.926
06/06/2004 3:00 p 58.1 58.1 58.1 58.2 57.9 100 58.1 0.0 0.0 --- 0.00 29.926
06/07/2004 10:30 p 67.0 67.0 67.0 67.1 67.0 82 61.3 0.0 0.0 --- 0.00 29.986
06/07/2004 11:00 p 66.6 66.6 66.6 67.0 66.2 84 61.6 0.0 0.0 --- 0.00 29.993
06/07/2004 11:30 p 65.8 65.8 65.8 66.2 65.5 86 61.5 0.0 0.0 --- 0.00 30.002
06/08/2004 12:00 a 65.1 65.1 65.1 65.5 64.9 86 60.8 0.0 0.0 --- 0.00 30.009
06/08/2004 12:30 a 64.6 64.6 64.6 65.0 64.4 88 61.0 0.0 0.0 --- 0.00 30.014
06/08/2004 1:00 a 63.8 63.8 63.8 64.4 63.5 90 60.8 0.0 0.0 --- 0.00 30.018
06/08/2004 1:30 a 63.2 63.2 63.2 63.5 62.9 92 60.8 0.0 0.0 --- 0.00 30.025
06/08/2004 2:00 a 62.9 62.9 62.9 63.0 62.8 92 60.5 0.0 0.0 --- 0.00 30.029
06/08/2004 2:30 a 62.3 62.3 62.3 62.8 61.9 94 60.6 0.0 0.0 --- 0.00 30.026
06/08/2004 3:00 a 61.7 61.7 61.7 61.9 61.6 94 60.0 0.0 0.0 --- 0.00 30.031
06/08/2004 3:30 a 61.3 61.3 61.3 61.6 61.2 96 60.2 0.0 0.0 --- 0.00 30.032
06/08/2004 4:00 a 60.9 60.9 60.9 61.2 60.8 97 60.0 0.0 0.0 --- 0.00 30.037
06/08/2004 4:30 a 60.5 60.5 60.5 60.8 60.2 98 59.9 0.0 0.0 --- 0.00 30.039
06/08/2004 5:00 a 60.0 60.0 60.0 60.2 59.8 99 59.7 0.0 0.0 --- 0.00 30.038
06/08/2004 5:30 a 59.8 59.8 59.8 59.9 59.7 100 59.8 0.0 0.0 --- 0.00 30.045
06/08/2004 6:00 a 59.8 59.8 59.8 60.0 59.6 100 59.8 0.0 0.0 --- 0.00 30.054
06/08/2004 6:30 a 60.5 60.5 60.5 61.2 60.0 100 60.5 0.0 0.0 --- 0.00 30.062
06/08/2004 7:00 a 61.7 61.7 61.7 62.5 61.2 100 61.7 0.0 0.0 --- 0.00 30.064
06/08/2004 7:30 a 65.1 65.1 65.1 69.4 62.5 83 59.8 0.0 0.0 --- 0.00 30.064
06/08/2004 8:00 a 71.8 69.7 69.7 70.5 68.8 79 62.9 0.0 0.0 --- 0.00 30.063
06/08/2004 8:30 a 73.0 71.1 71.1 71.8 70.5 80 64.6 0.0 0.0 --- 0.00 30.069
06/08/2004 9:00 a 73.8 72.1 72.1 72.5 71.2 79 65.2 0.0 2.0 W 0.00 30.067
06/08/2004 9:30 a 76.0 73.5 73.5 74.4 72.5 76 65.5 0.0 2.0 NW 0.00 30.055
06/08/2004 10:00 a 77.0 75.3 75.3 76.3 74.4 71 65.3 0.0 1.0 --- 0.00 30.056
06/08/2004 10:30 a 78.8 77.2 77.2 77.9 76.3 69 66.3 0.0 2.0 W 0.00 30.070
06/08/2004 11:00 a 81.0 79.0 79.0 80.2 77.9 64 65.8 0.0 2.0 WSW 0.00 30.055
06/08/2004 11:30 a 83.2 80.7 80.7 81.3 80.2 61 66.0 0.0 2.0 S 0.00 30.065
06/08/2004 12:00 p 85.0 82.5 82.5 83.9 81.3 58 66.2 0.0 2.0 ESE 0.00 30.052
06/08/2004 12:30 p 86.8 85.3 85.3 86.6 83.8 49 64.0 0.0 2.0 SW 0.00 30.039
06/08/2004 1:00 p 91.6 91.0 91.0 95.5 86.6 33 57.9 0.0 3.0 WNW 0.00 30.036
06/08/2004 1:30 p 99.0 96.8 96.8 98.2 95.4 30 60.3 0.0 3.0 SW 0.00 30.030
06/08/2004 2:00 p 100.0 98.4 98.4 98.8 97.9 30 61.7 0.0 3.0 SSE 0.00 30.014
06/08/2004 2:30 p 100.6 99.2 99.2 99.7 98.3 29 61.4 0.0 3.0 SW 0.00 30.009
06/08/2004 3:00 p 102.2 98.6 98.6 99.5 98.1 32 63.7 0.0 3.0 SE 0.00 30.000
06/08/2004 3:30 p 101.6 98.7 98.7 99.7 97.9 31 62.8 0.0 2.0 NE 0.00 29.984
06/08/2004 4:00 p 99.6 98.4 98.4 99.6 98.0 29 60.7 0.0 3.0 W 0.00 29.975
06/08/2004 4:30 p 100.2 96.7 96.7 98.3 94.7 33 62.9 0.0 2.0 SSW 0.00 29.967
06/08/2004 5:00 p 91.1 89.8 89.8 94.7 87.6 37 60.1 0.0 3.0 SSW 0.00 29.952
06/08/2004 5:30 p 91.6 89.0 89.0 92.1 85.7 44 64.3 0.0 2.0 SSE 0.00 29.947
06/08/2004 6:00 p 86.8 84.7 84.7 85.7 83.8 49 63.4 0.0 1.0 WSW 0.00 29.940
06/08/2004 6:30 p 85.0 83.1 83.1 83.8 82.4 51 63.1 0.0 1.0 WSW 0.00 29.940
06/08/2004 7:00 p 83.5 81.6 81.6 82.4 80.8 55 63.9 0.0 0.0 --- 0.00 29.937
06/08/2004 7:30 p 81.4 79.9 79.9 80.8 79.3 57 63.3 0.0 0.0 --- 0.00 29.941
06/08/2004 8:00 p 80.8 78.8 78.8 79.3 78.0 59 63.3 0.0 0.0 --- 0.00 29.939
06/08/2004 8:30 p 77.2 77.1 77.1 78.0 76.3 61 62.6 0.0 0.0 --- 0.00 29.938
06/08/2004 9:00 p 76.6 75.7 75.7 76.3 75.0 63 62.2 0.0 0.0 --- 0.00 29.953
06/08/2004 9:30 p 75.2 74.3 74.3 75.0 73.6 66 62.2 0.0 0.0 --- 0.00 29.968
06/08/2004 10:00 p 74.2 72.9 72.9 73.6 72.1 72 63.4 0.0 0.0 --- 0.00 29.979
06/08/2004 10:30 p 72.2 71.4 71.4 72.1 70.7 76 63.4 0.0 0.0 --- 0.00 29.985
06/08/2004 11:00 p 71.6 70.2 70.2 70.8 69.8 78 63.0 0.0 0.0 --- 0.00 29.982
06/08/2004 11:30 p 71.0 69.4 69.4 69.8 68.9 81 63.3 0.0 0.0 --- 0.00 29.977
06/09/2004 12:00 a 71.0 68.5 68.5 68.9 68.0 84 63.5 0.0 0.0 --- 0.00 29.975
06/09/2004 12:30 a 67.6 67.6 67.6 68.0 67.1 88 63.9 0.0 0.0 --- 0.00 29.963
06/09/2004 1:00 a 66.7 66.7 66.7 67.1 66.5 89 63.4 0.0 0.0 --- 0.00 29.958
06/09/2004 1:30 a 66.5 66.5 66.5 66.6 66.3 89 63.2 0.0 0.0 --- 0.00 29.952
06/09/2004 2:00 a 66.0 66.0 66.0 66.3 65.7 90 63.0 0.0 0.0 --- 0.00 29.949
06/09/2004 2:30 a 65.8 65.8 65.8 65.9 65.6 89 62.5 0.0 0.0 --- 0.00 29.946
06/09/2004 3:00 a 65.3 65.3 65.3 65.6 64.9 91 62.6 0.0 0.0 --- 0.00 29.941
06/09/2004 3:30 a 64.8 64.8 64.8 64.9 64.6 92 62.4 0.0 0.0 --- 0.00 29.932
06/09/2004 4:00 a 64.5 64.5 64.5 64.6 64.4 92 62.1 0.0 0.0 --- 0.00 29.931
06/09/2004 4:30 a 64.2 64.2 64.2 64.4 63.9 94 62.4 0.0 0.0 --- 0.00 29.927
06/09/2004 5:00 a 63.9 63.9 63.9 63.9 63.8 94 62.1 0.0 0.0 --- 0.00 29.921
06/09/2004 5:30 a 63.7 63.7 63.7 63.9 63.6 96 62.5 0.0 0.0 --- 0.00 29.917
06/09/2004 6:00 a 63.5 63.5 63.5 63.6 63.5 97 62.6 0.0 0.0 --- 0.00 29.930
06/09/2004 6:30 a 64.2 64.2 64.2 64.9 63.6 97 63.3 0.0 0.0 --- 0.00 29.930
06/09/2004 7:00 a 65.7 65.7 65.7 66.6 64.9 94 63.9 0.0 0.0 --- 0.00 29.933
06/09/2004 7:30 a 71.0 69.4 69.4 72.1 66.6 85 64.7 0.0 0.0 --- 0.00 29.933
06/09/2004 8:00 a 75.0 73.0 73.0 73.8 71.7 81 66.8 0.0 0.0 --- 0.00 29.933
06/09/2004 8:30 a 76.0 73.9 73.9 74.5 73.6 83 68.4 0.0 1.0 SW 0.00 29.929
06/09/2004 9:00 a 77.0 75.1 75.1 76.5 74.1 80 68.5 0.0 0.0 --- 0.00 29.924
06/09/2004 9:30 a 81.2 77.6 77.6 78.7 76.5 76 69.4 0.0 2.0 S 0.00 29.911
06/09/2004 10:00 a 83.2 80.1 80.1 81.8 78.7 71 69.9 0.0 1.0 S 0.00 29.904
06/09/2004 10:30 a 87.2 81.5 81.5 82.0 81.2 71 71.2 0.0 1.0 S 0.00 29.897
06/09/2004 11:00 a 87.8 83.2 83.2 84.4 81.5 67 71.1 0.0 1.0 S 0.00 29.894
06/09/2004 11:30 a 90.2 85.4 85.4 86.4 84.4 63 71.4 0.0 2.0 S 0.00 29.878
06/09/2004 12:00 p 95.5 89.2 89.2 91.5 86.4 55 70.9 0.0 1.0 E 0.00 29.863
06/09/2004 12:30 p 100.6 95.8 95.8 99.2 90.5 39 66.9 0.0 2.0 ENE 0.00 29.852
06/09/2004 1:00 p 108.6 99.9 99.9 100.9 99.1 38 69.8 0.0 1.0 E 0.00 29.837
06/09/2004 1:30 p 110.8 102.0 102.0 102.4 100.9 36 70.0 0.0 2.0 E 0.00 29.823
06/09/2004 2:00 p 108.4 102.0 102.0 102.7 101.4 33 67.5 0.0 2.0 NE 0.00 29.816
06/09/2004 2:30 p 112.7 100.2 100.2 102.7 94.9 43 73.7 0.0 2.0 SSW 0.00 29.803
06/09/2004 3:00 p 105.0 98.0 98.0 99.1 96.4 40 69.6 0.0 1.0 NE 0.00 29.788
06/09/2004 3:30 p 103.0 98.3 98.3 99.8 96.9 36 66.8 0.0 2.0 E 0.00 29.777
06/09/2004 4:00 p 98.6 94.8 94.8 97.0 93.7 39 66.0 0.0 2.0 E 0.00 29.762
06/09/2004 4:30 p 97.2 93.4 93.4 93.9 93.0 43 67.6 0.0 2.0 S 0.00 29.747
06/09/2004 5:00 p 97.6 92.6 92.6 93.0 92.2 44 67.5 0.0 2.0 SSW 0.00 29.731
06/09/2004 5:30 p 94.5 91.2 91.2 92.3 90.3 45 66.9 0.0 3.0 S 0.00 29.722
06/09/2004 6:00 p 94.7 89.6 89.6 90.3 88.9 49 67.9 0.0 2.0 SSE 0.00 29.720
06/09/2004 6:30 p 92.0 88.3 88.3 88.9 87.6 50 67.3 0.0 3.0 SSE 0.00 29.707
06/09/2004 7:00 p 90.9 87.0 87.0 87.5 86.3 53 67.8 0.0 2.0 SW 0.00 29.711
06/09/2004 7:30 p 90.4 85.5 85.5 86.3 84.6 58 69.0 0.0 1.0 --- 0.00 29.715
06/09/2004 8:00 p 87.0 84.3 84.3 84.6 83.7 60 68.9 0.0 1.0 --- 0.00 29.718
06/09/2004 8:30 p 85.8 82.7 82.7 83.7 82.0 62 68.4 0.0 0.0 --- 0.00 29.732
06/09/2004 9:00 p 84.2 81.4 81.4 82.1 80.7 66 69.0 0.0 0.0 --- 0.00 29.735
06/09/2004 9:30 p 82.8 80.2 80.2 80.7 79.8 68 68.7 0.0 0.0 --- 0.00 29.744
06/09/2004 10:00 p 81.2 79.2 79.2 79.8 78.6 71 69.0 0.0 0.0 --- 0.00 29.753
06/09/2004 10:30 p 80.8 78.1 78.1 78.6 77.5 74 69.1 0.0 0.0 --- 0.00 29.747
06/09/2004 11:00 p 80.6 76.9 76.9 77.5 76.4 78 69.5 0.0 0.0 --- 0.00 29.740
06/09/2004 11:30 p 78.9 76.1 76.1 76.4 75.8 79 69.1 0.0 0.0 --- 0.00 29.739
06/10/2004 12:00 a 78.9 75.5 75.5 75.8 75.0 79 68.5 0.0 0.0 --- 0.00 29.739
06/10/2004 12:30 a 77.1 75.1 75.1 75.2 74.9 81 68.9 0.0 0.0 --- 0.00 29.732
06/10/2004 1:00 a 76.0 74.3 74.3 74.9 73.8 84 69.2 0.0 0.0 --- 0.00 29.722
06/10/2004 1:30 a 75.0 73.3 73.3 73.8 72.9 86 68.9 0.0 0.0 --- 0.00 29.718
06/10/2004 2:00 a 75.0 72.9 72.9 73.0 72.8 86 68.5 0.0 0.0 --- 0.00 29.710
06/10/2004 2:30 a 74.0 72.3 72.3 72.8 71.7 88 68.6 0.0 0.0 --- 0.00 29.700
06/10/2004 3:00 a 73.0 71.3 71.3 71.7 71.1 90 68.2 0.0 0.0 --- 0.00 29.691
06/10/2004 3:30 a 73.0 71.0 71.0 71.2 70.9 89 67.6 0.0 0.0 --- 0.00 29.684
06/10/2004 4:00 a 74.0 71.8 71.8 72.5 71.2 85 67.1 0.0 0.0 --- 0.00 29.689
06/10/2004 4:30 a 74.0 72.4 72.4 72.5 72.2 85 67.6 0.0 0.0 --- 0.00 29.691
06/10/2004 5:00 a 74.0 72.2 72.2 72.4 72.1 85 67.4 0.0 0.0 --- 0.00 29.692
06/10/2004 5:30 a 74.0 71.7 71.7 72.1 71.1 88 68.0 0.0 0.0 --- 0.00 29.700
06/10/2004 6:00 a 73.0 70.9 70.9 71.1 70.7 89 67.5 0.0 0.0 --- 0.00 29.704
06/10/2004 6:30 a 73.0 71.3 71.3 71.9 70.8 87 67.2 0.0 0.0 --- 0.00 29.707
06/10/2004 7:00 a 75.0 72.7 72.7 73.5 71.9 83 67.2 0.0 0.0 --- 0.00 29.705
06/10/2004 7:30 a 76.0 74.0 74.0 74.7 73.5 80 67.4 0.0 0.0 --- 0.00 29.716
06/10/2004 8:00 a 77.0 74.9 74.9 75.0 74.7 80 68.3 0.0 0.0 --- 0.00 29.717
06/10/2004 8:30 a 78.7 75.6 75.6 76.4 75.0 77 67.9 0.0 0.0 --- 0.00 29.720
06/10/2004 9:00 a 80.2 77.9 77.9 78.7 76.4 71 67.7 0.0 1.0 NW 0.00 29.719
06/10/2004 9:30 a 82.8 79.6 79.6 80.7 78.6 68 68.1 0.0 2.0 SE 0.00 29.717
06/10/2004 10:00 a 84.6 81.1 81.1 81.7 80.5 68 69.5 0.0 2.0 SSE 0.00 29.717
06/10/2004 10:30 a 84.6 81.0 81.0 81.4 80.5 68 69.5 0.0 1.0 S 0.00 29.721
06/10/2004 11:00 a 81.2 79.4 79.4 80.4 78.8 71 69.2 0.0 1.0 SSE 0.00 29.722
06/10/2004 11:30 a 82.8 79.6 79.6 80.5 78.9 68 68.1 0.0 1.0 SSE 0.00 29.729
06/10/2004 12:00 p 83.0 80.2 80.2 80.8 79.5 70 69.5 0.0 1.0 --- 0.00 29.728
06/10/2004 12:30 p 83.6 79.5 79.5 79.7 79.3 73 70.1 0.0 1.0 --- 0.00 29.723
06/10/2004 1:00 p 81.0 79.3 79.3 79.6 79.0 69 68.3 0.0 1.0 ESE 0.00 29.720
06/10/2004 1:30 p 82.8 80.1 80.1 80.8 79.6 68 68.6 0.0 1.0 ESE 0.00 29.716
06/10/2004 2:00 p 84.9 81.7 81.7 83.0 80.8 63 67.9 0.0 1.0 SSE 0.00 29.706
06/10/2004 2:30 p 86.2 82.5 82.5 83.2 81.8 63 68.6 0.0 1.0 --- 0.00 29.698
06/10/2004 9:00 p 62.2 62.2 62.2 62.4 62.1 100 62.2 0.0 0.0 --- 0.00 29.762
06/10/2004 9:30 p 62.1 62.1 62.1 62.2 62.1 100 62.1 0.0 0.0 --- 0.00 29.767
06/10/2004 10:00 p 61.7 61.7 61.7 62.1 61.5 100 61.7 0.0 0.0 --- 0.00 29.766
06/10/2004 10:30 p 61.7 61.7 61.7 61.7 61.6 100 61.7 0.0 0.0 --- 0.00 29.771
06/10/2004 11:00 p 61.5 61.5 61.5 61.6 61.4 100 61.5 0.0 0.0 --- 0.00 29.771
06/10/2004 11:30 p 61.4 61.4 61.4 61.4 61.3 100 61.4 0.0 0.0 --- 0.00 29.771
06/11/2004 12:00 a 61.8 61.8 61.8 62.0 61.3 100 61.8 0.0 0.0 --- 0.00 29.764
06/11/2004 12:30 a 62.2 62.2 62.2 62.3 62.0 100 62.2 0.0 0.0 --- 0.00 29.758
06/11/2004 1:00 a 62.0 62.0 62.0 62.1 61.7 100 62.0 0.0 1.0 --- 0.00 29.758
06/11/2004 1:30 a 61.4 61.4 61.4 61.8 60.7 100 61.4 0.0 2.0 N 0.01 29.773
06/11/2004 2:00 a 59.7 59.7 59.7 60.7 59.1 100 59.7 0.0 2.0 N 0.00 29.763
06/11/2004 2:30 a 59.2 59.2 59.2 59.3 59.1 100 59.2 0.0 0.0 --- 0.01 29.759
06/11/2004 3:00 a 59.3 59.3 59.3 59.3 59.2 100 59.3 0.0 0.0 --- 0.00 29.759
06/11/2004 3:30 a 59.3 59.3 59.3 59.5 59.3 100 59.3 0.0 0.0 --- 0.00 29.766
06/11/2004 4:00 a 59.4 59.4 59.4 59.5 59.2 100 59.4 0.0 0.0 --- 0.01 29.765
06/11/2004 4:30 a 59.2 59.2 59.2 59.3 58.9 100 59.2 0.0 0.0 --- 0.01 29.766
06/11/2004 5:00 a 58.7 58.7 58.7 58.9 58.7 100 58.7 0.0 0.0 --- 0.02 29.771
06/11/2004 5:30 a 58.7 58.7 58.7 58.8 58.7 100 58.7 0.0 0.0 --- 0.01 29.773
06/11/2004 6:00 a 59.0 59.0 59.0 59.1 58.8 100 59.0 0.0 0.0 --- 0.00 29.784
06/11/2004 6:30 a 59.1 59.1 59.1 59.2 59.1 100 59.1 0.0 0.0 --- 0.00 29.791
06/11/2004 7:00 a 59.0 59.0 59.0 59.2 58.9 100 59.0 0.0 0.0 --- 0.00 29.801
06/11/2004 7:30 a 59.2 59.2 59.2 59.3 59.0 100 59.2 0.0 0.0 --- 0.00 29.803
06/11/2004 8:00 a 59.4 59.4 59.4 59.7 59.1 100 59.4 0.0 0.0 --- 0.00 29.803
06/11/2004 8:30 a 60.7 60.7 60.7 61.3 59.7 100 60.7 0.0 0.0 --- 0.00 29.814
06/11/2004 9:00 a 61.8 61.8 61.8 62.3 61.2 100 61.8 0.0 2.0 N 0.00 29.808
06/11/2004 9:30 a 62.4 62.4 62.4 62.8 61.9 100 62.4 0.0 2.0 N 0.00 29.811
06/11/2004 10:00 a 61.3 61.3 61.3 61.9 61.0 100 61.3 0.0 0.0 --- 0.00 29.809
06/11/2004 10:30 a 61.2 61.2 61.2 61.8 60.9 100 61.2 0.0 0.0 --- 0.00 29.811
06/11/2004 11:00 a 63.1 63.1 63.1 64.6 61.8 100 63.1 0.0 2.0 N 0.00 29.807
06/11/2004 11:30 a 65.2 65.2 65.2 65.7 64.6 96 64.0 0.0 2.0 N 0.00 29.802
06/11/2004 12:00 p 65.9 65.9 65.9 66.4 65.6 92 63.5 0.0 2.0 ESE 0.00 29.797
06/11/2004 12:30 p 66.8 66.8 66.8 67.4 66.3 90 63.8 0.0 0.0 --- 0.00 29.792
06/11/2004 1:00 p 67.2 67.2 67.2 67.6 67.0 88 63.5 0.0 1.0 E 0.00 29.794
06/11/2004 1:30 p 68.0 68.0 68.0 68.7 67.6 60 53.6 0.0 0.0 --- 0.00 29.794
06/11/2004 2:00 p 69.0 68.9 68.9 69.2 68.5 61 54.9 0.0 0.0 --- 0.00 29.795
06/11/2004 2:30 p 68.2 68.8 68.8 69.0 68.4 56 52.5 0.0 0.0 --- 0.00 29.797
06/11/2004 3:00 p 67.8 68.5 68.5 68.9 68.3 54 51.2 0.0 0.0 --- 0.00 29.797
06/11/2004 3:30 p 67.8 69.0 69.0 69.3 68.5 54 51.7 0.0 3.0 SE 0.00 29.798
06/11/2004 4:00 p 66.2 68.0 68.0 68.5 67.7 51 49.2 0.0 1.0 SE 0.00 29.790
06/11/2004 4:30 p 66.4 68.2 68.2 68.3 67.8 52 49.9 0.0 1.0 --- 0.00 29.780
06/11/2004 5:00 p 66.4 68.2 68.2 68.3 68.0 52 49.9 0.0 0.0 --- 0.00 29.771
06/11/2004 5:30 p 67.9 67.9 67.9 68.0 67.8 51 49.1 0.0 1.0 --- 0.00 29.762
06/11/2004 6:00 p 67.9 67.9 67.9 68.0 67.7 57 52.1 0.0 0.0 --- 0.00 29.758
06/11/2004 6:30 p 67.4 67.4 67.4 67.8 66.8 56 51.2 0.0 1.0 --- 0.00 29.759
06/11/2004 7:00 p 66.0 66.0 66.0 66.8 65.3 64 53.5 0.0 0.0 --- 0.00 29.764
06/11/2004 7:30 p 64.9 64.9 64.9 65.3 64.2 69 54.5 0.0 0.0 --- 0.00 29.761
06/11/2004 8:00 p 63.5 63.5 63.5 64.2 63.0 72 54.3 0.0 0.0 --- 0.00 29.774
06/11/2004 8:30 p 62.5 62.5 62.5 63.0 62.1 74 54.1 0.0 0.0 --- 0.00 29.784
06/11/2004 9:00 p 61.3 61.3 61.3 62.1 60.3 82 55.8 0.0 0.0 --- 0.00 29.789
06/11/2004 9:30 p 59.2 59.2 59.2 60.3 58.4 86 55.0 0.0 0.0 --- 0.00 29.804
06/11/2004 10:00 p 57.8 57.8 57.8 58.4 57.3 90 54.9 0.0 0.0 --- 0.00 29.814
06/11/2004 10:30 p 56.9 56.9 56.9 57.3 56.3 93 54.9 0.0 0.0 --- 0.00 29.822
06/11/2004 11:00 p 55.9 55.9 55.9 56.3 55.4 94 54.2 0.0 0.0 --- 0.00 29.826
06/11/2004 11:30 p 55.2 55.2 55.2 55.4 55.1 95 53.8 0.0 0.0 --- 0.00 29.833
06/12/2004 12:00 a 54.7 54.7 54.7 55.1 54.4 96 53.6 0.0 0.0 --- 0.00 29.838
06/12/2004 12:30 a 54.3 54.3 54.3 54.5 54.1 96 53.2 0.0 0.0 --- 0.00 29.839
06/12/2004 1:00 a 53.7 53.7 53.7 54.1 53.6 99 53.4 0.0 0.0 --- 0.00 29.844
06/12/2004 1:30 a 53.3 53.3 53.3 53.6 52.9 99 53.0 0.0 0.0 --- 0.00 29.840
06/12/2004 2:00 a 52.8 52.8 52.8 52.9 52.6 98 52.3 0.0 0.0 --- 0.00 29.845
06/12/2004 2:30 a 52.2 52.2 52.2 52.6 51.8 98 51.7 0.0 0.0 --- 0.00 29.845
06/12/2004 3:00 a 51.7 51.7 51.7 51.8 51.5 99 51.4 0.0 0.0 --- 0.00 29.854
06/12/2004 3:30 a 51.3 51.3 51.3 51.5 51.1 99 51.0 0.0 0.0 --- 0.00 29.856
06/12/2004 4:00 a 50.7 50.7 50.7 51.1 50.4 99 50.4 0.0 0.0 --- 0.00 29.873
06/12/2004 4:30 a 50.8 50.8 50.8 51.1 50.4 100 50.8 0.0 0.0 --- 0.00 29.877
06/12/2004 5:00 a 51.0 51.0 51.0 51.1 50.6 99 50.7 0.0 0.0 --- 0.00 29.883
06/12/2004 5:30 a 50.4 50.4 50.4 50.6 50.1 100 50.4 0.0 0.0 --- 0.00 29.900
06/12/2004 6:00 a 50.0 50.0 50.0 50.2 49.9 100 50.0 0.0 0.0 --- 0.00 29.908
06/12/2004 6:30 a 50.2 50.2 50.2 50.5 50.0 100 50.2 0.0 0.0 --- 0.00 29.921
06/12/2004 7:00 a 51.3 51.3 51.3 52.3 50.5 100 51.3 0.0 0.0 --- 0.00 29.937
06/12/2004 7:30 a 56.0 56.0 56.0 60.6 52.3 80 49.9 0.0 0.0 --- 0.00 29.940
06/12/2004 8:00 a 61.8 61.8 61.8 63.3 59.4 61 48.2 0.0 0.0 --- 0.00 29.951
06/12/2004 8:30 a 62.4 62.4 62.4 63.0 62.1 58 47.4 0.0 1.0 --- 0.00 29.957
06/12/2004 9:00 a 63.1 63.1 63.1 64.4 62.1 56 47.2 0.0 1.0 SE 0.00 29.967
06/12/2004 9:30 a 65.5 65.5 65.5 66.5 64.4 52 47.4 0.0 2.0 ENE 0.00 29.963
06/12/2004 10:00 a 67.4 67.4 67.4 68.1 66.5 42 43.5 0.0 0.0 --- 0.00 29.964
06/12/2004 10:30 a 66.8 68.8 68.8 69.5 68.0 39 42.9 0.0 2.0 ENE 0.00 29.972
06/12/2004 11:00 a 67.4 69.7 69.7 70.1 69.0 37 42.3 0.0 0.0 --- 0.00 29.981
06/12/2004 11:30 a 67.0 70.2 70.2 71.1 69.8 35 41.3 0.0 3.0 SSE 0.00 29.979
06/12/2004 12:00 p 71.8 73.7 73.7 76.3 71.1 29 39.5 0.0 2.0 NE 0.00 29.975
06/12/2004 12:30 p 81.0 82.7 82.7 87.9 75.9 21 38.8 0.0 2.0 E 0.00 29.977
06/12/2004 1:00 p 85.2 88.9 88.9 90.9 87.4 21 44.0 0.0 1.0 ESE 0.00 29.976
06/12/2004 1:30 p 85.0 88.9 88.9 90.0 88.1 20 42.7 0.0 3.0 ESE 0.00 29.958
06/12/2004 2:00 p 84.9 89.1 89.1 90.3 87.2 19 41.5 0.0 2.0 E 0.00 29.952
06/12/2004 2:30 p 84.0 88.4 88.4 88.9 87.2 19 40.9 0.0 2.0 SE 0.00 29.955
06/12/2004 3:00 p 83.8 87.2 87.2 88.3 86.1 24 46.1 0.0 3.0 SE 0.00 29.952
06/12/2004 3:30 p 83.4 86.1 86.1 87.9 83.2 27 48.2 0.0 2.0 NE 0.00 29.942
06/12/2004 4:00 p 78.0 80.2 80.2 83.2 78.8 30 46.0 0.0 2.0 SE 0.00 29.931
06/12/2004 4:30 p 76.3 78.2 78.2 78.8 77.7 33 46.8 0.0 3.0 SE 0.00 29.925
06/12/2004 5:00 p 77.0 78.5 78.5 78.7 77.9 30 44.5 0.0 1.0 SE 0.00 29.923
06/12/2004 5:30 p 75.0 77.0 77.0 77.9 76.4 34 46.5 0.0 2.0 E 0.00 29.922
06/12/2004 6:00 p 74.0 75.8 75.8 76.4 75.2 35 46.2 0.0 1.0 --- 0.00 29.928
06/12/2004 6:30 p 73.0 74.9 74.9 75.2 74.3 33 43.9 0.0 0.0 --- 0.00 29.935
06/12/2004 7:00 p 71.0 73.2 73.2 74.3 72.1 39 46.8 0.0 3.0 N 0.00 29.949
06/12/2004 7:30 p 69.0 71.1 71.1 72.1 69.9 41 46.2 0.0 3.0 N 0.00 29.966
06/12/2004 8:00 p 67.0 69.2 69.2 69.9 68.5 43 45.8 0.0 2.0 N 0.00 29.976
06/12/2004 8:30 p 67.1 67.1 67.1 68.5 66.2 46 45.7 0.0 1.0 ESE 0.00 29.991
06/12/2004 9:00 p 65.5 65.5 65.5 66.2 64.8 50 46.4 0.0 0.0 --- 0.00 30.005
06/12/2004 9:30 p 64.0 64.0 64.0 64.8 63.3 54 47.0 0.0 0.0 --- 0.00 30.018
06/12/2004 10:00 p 62.7 62.7 62.7 63.3 62.1 59 48.2 0.0 0.0 --- 0.00 30.034
06/12/2004 10:30 p 61.5 61.5 61.5 62.1 60.9 61 47.9 0.0 0.0 --- 0.00 30.042
06/12/2004 11:00 p 60.2 60.2 60.2 60.9 59.6 65 48.4 0.0 0.0 --- 0.00 30.046
06/12/2004 11:30 p 59.1 59.1 59.1 59.6 58.7 68 48.6 0.0 0.0 --- 0.00 30.050
06/13/2004 12:00 a 58.5 58.5 58.5 58.7 58.2 67 47.6 0.0 0.0 --- 0.00 30.057
06/13/2004 12:30 a 57.7 57.7 57.7 58.2 57.3 70 48.0 0.0 0.0 --- 0.00 30.064
06/13/2004 1:00 a 56.9 56.9 56.9 57.3 56.5 73 48.3 0.0 0.0 --- 0.00 30.068
06/13/2004 1:30 a 56.2 56.2 56.2 56.5 55.7 75 48.4 0.0 0.0 --- 0.00 30.068
06/13/2004 2:00 a 55.5 55.5 55.5 55.7 55.2 77 48.4 0.0 0.0 --- 0.00 30.067
06/13/2004 2:30 a 55.1 55.1 55.1 55.2 54.8 81 49.4 0.0 0.0 --- 0.00 30.069
06/13/2004 3:00 a 54.8 54.8 54.8 54.9 54.7 82 49.4 0.0 0.0 --- 0.00 30.064
06/13/2004 3:30 a 54.5 54.5 54.5 54.7 54.5 81 48.8 0.0 0.0 --- 0.00 30.063
06/13/2004 4:00 a 54.4 54.4 54.4 54.5 54.1 84 49.7 0.0 0.0 --- 0.00 30.063
06/13/2004 4:30 a 53.7 53.7 53.7 54.1 53.3 86 49.6 0.0 0.0 --- 0.00 30.065
06/13/2004 5:00 a 53.0 53.0 53.0 53.3 52.7 89 49.9 0.0 0.0 --- 0.00 30.061
06/13/2004 5:30 a 52.5 52.5 52.5 52.7 52.4 89 49.4 0.0 0.0 --- 0.00 30.070
06/13/2004 6:00 a 52.3 52.3 52.3 52.5 52.1 91 49.8 0.0 0.0 --- 0.00 30.074
06/13/2004 6:30 a 52.6 52.6 52.6 53.1 52.3 91 50.1 0.0 0.0 --- 0.00 30.077
06/13/2004 7:00 a 54.0 54.0 54.0 55.0 53.1 90 51.1 0.0 0.0 --- 0.00 30.085
06/13/2004 7:30 a 56.5 56.5 56.5 58.2 55.0 82 51.1 0.0 0.0 --- 0.00 30.090
06/13/2004 8:00 a 59.0 59.0 59.0 60.4 58.3 74 50.7 0.0 0.0 --- 0.00 30.098
06/13/2004 8:30 a 61.4 61.4 61.4 61.7 60.4 73 52.7 0.0 0.0 --- 0.00 30.102
06/13/2004 9:00 a 62.6 62.6 62.6 64.5 61.7 68 51.9 0.0 0.0 --- 0.00 30.097
06/13/2004 9:30 a 66.0 66.0 66.0 67.3 64.5 60 51.7 0.0 1.0 ESE 0.00 30.099
06/13/2004 10:00 a 67.8 68.5 68.5 69.4 67.3 54 51.2 0.0 3.0 NNW 0.00 30.092
06/13/2004 10:30 a 69.2 70.7 70.7 71.8 69.4 51 51.7 0.0 2.0 NNE 0.00 30.095
06/13/2004 11:00 a 71.0 72.2 72.2 72.7 71.5 50 52.5 0.0 3.0 NNW 0.00 30.091
06/13/2004 11:30 a 72.0 72.8 72.8 75.5 71.9 45 50.2 0.0 3.0 NW 0.00 30.087
06/13/2004 12:00 p 73.8 74.6 74.6 75.9 73.7 44 51.3 0.0 3.0 WNW 0.00 30.075
06/13/2004 12:30 p 75.0 77.4 77.4 80.3 74.7 40 51.2 0.0 3.0 NNW 0.00 30.069
06/13/2004 1:00 p 73.0 74.0 74.0 75.5 73.1 45 51.3 0.0 3.0 NNW 0.00 30.057
06/13/2004 1:30 p 74.0 76.1 76.1 78.9 73.0 33 44.9 0.0 4.0 NNW 0.00 30.040
06/13/2004 2:00 p 76.5 77.7 77.7 79.6 76.4 35 47.9 0.0 4.0 N 0.00 30.030
06/13/2004 2:30 p 76.9 77.7 77.7 79.4 76.1 39 50.8 0.0 4.0 NNW 0.00 30.024
06/13/2004 3:00 p 75.0 76.7 76.7 77.2 75.9 37 48.5 0.0 3.0 NW 0.00 30.021
06/13/2004 3:30 p 74.0 75.8 75.8 76.4 74.8 38 48.4 0.0 4.0 NNE 0.00 30.016
06/13/2004 4:00 p 72.0 73.9 73.9 74.8 73.2 33 43.0 0.0 6.0 WSW 0.00 30.014
06/13/2004 4:30 p 71.0 72.7 72.7 73.2 72.0 33 42.0 0.0 3.0 N 0.00 30.022
06/13/2004 5:00 p 69.6 71.7 71.7 72.0 71.6 36 43.3 0.0 4.0 NE 0.00 30.011
06/13/2004 5:30 p 69.0 71.4 71.4 71.6 71.1 41 46.5 0.0 3.0 N 0.00 30.014
06/13/2004 6:00 p 69.0 71.0 71.0 71.3 70.8 45 48.6 1.0 5.0 N 0.00 30.008
06/13/2004 6:30 p 68.6 70.0 70.0 70.8 68.7 53 52.1 1.0 5.0 N 0.00 30.008
06/13/2004 7:00 p 68.4 68.7 68.7 69.0 68.1 57 52.9 1.0 4.0 N 0.00 29.999
06/13/2004 7:30 p 67.6 67.6 67.6 68.1 67.0 60 53.2 1.0 5.0 NNE 0.00 30.001
06/13/2004 8:00 p 66.3 66.3 66.3 67.0 65.6 62 52.9 1.0 3.0 N 0.00 29.998
06/13/2004 8:30 p 65.3 65.3 65.3 65.6 65.2 61 51.5 0.0 2.0 N 0.00 29.998
06/13/2004 9:00 p 65.2 65.2 65.2 65.3 65.0 62 51.9 0.0 3.0 N 0.00 30.007
06/13/2004 9:30 p 64.8 64.8 64.8 65.0 64.6 64 52.4 0.0 4.0 NNE 0.00 30.011
06/13/2004 10:00 p 64.4 64.4 64.4 64.6 64.3 65 52.4 0.0 1.0 --- 0.00 30.010
06/13/2004 10:30 p 64.1 64.1 64.1 64.3 63.9 67 52.9 0.0 0.0 --- 0.00 30.005
06/13/2004 11:00 p 63.8 63.8 63.8 63.9 63.7 69 53.4 0.0 0.0 --- 0.00 30.004
06/13/2004 11:30 p 63.6 63.6 63.6 63.7 63.6 70 53.6 0.0 0.0 --- 0.00 30.006
06/14/2004 12:00 a 63.5 63.5 63.5 63.6 63.5 72 54.3 0.0 0.0 --- 0.00 29.996
06/14/2004 12:30 a 63.5 63.5 63.5 63.5 63.4 73 54.7 0.0 0.0 --- 0.00 29.988
06/14/2004 1:00 a 63.4 63.4 63.4 63.5 63.4 74 55.0 0.0 0.0 --- 0.00 29.981
06/14/2004 1:30 a 63.5 63.5 63.5 63.6 63.4 75 55.4 0.0 0.0 --- 0.00 29.963
06/14/2004 2:00 a 63.6 63.6 63.6 63.6 63.6 77 56.3 0.0 0.0 --- 0.00 29.953
06/14/2004 2:30 a 63.6 63.6 63.6 63.7 63.5 78 56.6 0.0 0.0 --- 0.00 29.947
06/14/2004 3:00 a 63.6 63.6 63.6 63.7 63.6 78 56.6 0.0 0.0 --- 0.00 29.935
06/14/2004 3:30 a 63.8 63.8 63.8 63.9 63.7 80 57.5 0.0 0.0 --- 0.00 29.938
06/14/2004 4:00 a 63.9 63.9 63.9 64.0 63.9 80 57.6 0.0 0.0 --- 0.00 29.937
06/14/2004 4:30 a 63.9 63.9 63.9 63.9 63.8 81 58.0 0.0 0.0 --- 0.00 29.929
06/14/2004 5:00 a 63.7 63.7 63.7 63.8 63.7 82 58.1 0.0 0.0 --- 0.00 29.925
06/14/2004 5:30 a 63.6 63.6 63.6 63.7 63.5 84 58.7 0.0 0.0 --- 0.00 29.916
06/14/2004 6:00 a 63.5 63.5 63.5 63.7 63.5 83 58.3 0.0 0.0 --- 0.00 29.920
06/14/2004 6:30 a 63.8 63.8 63.8 64.0 63.7 85 59.2 0.0 0.0 --- 0.00 29.917
06/14/2004 7:00 a 64.2 64.2 64.2 65.0 64.0 84 59.3 0.0 0.0 --- 0.00 29.907
06/14/2004 7:30 a 65.6 65.6 65.6 66.0 65.0 83 60.3 0.0 0.0 --- 0.00 29.902
06/14/2004 8:00 a 66.0 66.0 66.0 66.4 65.6 92 63.6 0.0 0.0 --- 0.00 29.913
06/14/2004 8:30 a 65.8 65.8 65.8 66.0 65.7 98 65.2 0.0 0.0 --- 0.00 29.905
06/14/2004 9:00 a 66.1 66.1 66.1 66.7 65.7 95 64.6 0.0 0.0 --- 0.00 29.897
06/14/2004 9:30 a 67.4 67.4 67.4 69.1 66.7 91 64.7 0.0 0.0 --- 0.00 29.880
06/14/2004 10:00 a 73.0 71.2 71.2 72.3 69.1 85 66.5 0.0 1.0 NNW 0.00 29.864
06/14/2004 10:30 a 75.0 72.7 72.7 73.6 72.2 83 67.2 0.0 1.0 NNW 0.00 29.862
06/14/2004 11:00 a 75.0 73.3 73.3 73.7 72.9 82 67.5 0.0 1.0 --- 0.00 29.861
06/14/2004 11:30 a 75.0 73.3 73.3 73.7 73.0 81 67.1 0.0 2.0 NNW 0.00 29.860
06/14/2004 12:00 p 76.0 73.5 73.5 73.8 73.3 81 67.3 0.0 0.0 --- 0.00 29.865
06/14/2004 12:30 p 76.0 73.6 73.6 73.8 73.5 82 67.8 0.0 0.0 --- 0.00 29.865
06/14/2004 1:00 p 76.0 74.1 74.1 74.5 73.6 79 67.2 0.0 1.0 NNW 0.00 29.867
06/14/2004 1:30 p 77.0 75.3 75.3 75.7 74.5 78 68.0 0.0 1.0 N 0.00 29.855
06/14/2004 2:00 p 80.0 76.5 76.5 77.7 75.6 75 68.0 0.0 0.0 --- 0.00 29.858
06/14/2004 2:30 p 85.2 81.6 81.6 84.5 77.7 64 68.3 0.0 2.0 N 0.00 29.852
06/14/2004 3:00 p 87.8 85.0 85.0 87.9 82.5 54 66.5 0.0 3.0 N 0.00 29.840
06/14/2004 3:30 p 90.7 85.7 85.7 88.7 83.0 59 69.7 0.0 3.0 WNW 0.00 29.832
06/14/2004 4:00 p 89.8 83.6 83.6 85.4 81.1 67 71.5 0.0 2.0 SSW 0.00 29.832
06/14/2004 4:30 p 84.2 80.8 80.8 81.7 80.1 66 68.4 0.0 3.0 NW 0.00 29.824
06/14/2004 5:00 p 85.2 80.5 80.5 81.6 79.2 71 70.2 0.0 1.0 N 0.00 29.817
06/14/2004 5:30 p 83.0 80.0 80.0 80.7 79.1 70 69.3 0.0 1.0 --- 0.00 29.807
06/14/2004 6:00 p 81.4 79.1 79.1 80.2 78.7 72 69.3 0.0 1.0 --- 0.00 29.808
06/14/2004 6:30 p 81.2 78.8 78.8 79.1 78.5 71 68.6 0.0 1.0 --- 0.00 29.811
06/14/2004 7:00 p 81.2 79.1 79.1 79.3 78.9 71 68.9 0.0 0.0 --- 0.00 29.802
06/14/2004 7:30 p 81.6 78.8 78.8 79.2 78.0 73 69.4 0.0 2.0 NW 0.00 29.794
06/14/2004 8:00 p 81.2 77.5 77.5 78.0 76.9 76 69.3 0.0 0.0 --- 0.00 29.818
06/14/2004 8:30 p 80.4 77.0 77.0 77.2 76.9 77 69.2 0.0 0.0 --- 0.00 29.815
06/14/2004 9:00 p 80.8 76.5 76.5 76.9 76.3 79 69.5 0.0 0.0 --- 0.00 29.814
06/14/2004 9:30 p 79.1 75.9 75.9 76.4 75.3 81 69.7 0.0 1.0 --- 0.00 29.821
06/14/2004 10:00 p 77.2 74.8 74.8 75.3 74.3 82 68.9 0.0 1.0 WSW 0.00 29.829
06/14/2004 10:30 p 76.0 73.9 73.9 74.3 73.5 85 69.1 0.0 0.0 --- 0.00 29.834
06/14/2004 11:00 p 75.0 73.2 73.2 73.5 72.8 87 69.1 0.0 0.0 --- 0.00 29.832
06/14/2004 11:30 p 75.0 72.8 72.8 72.9 72.7 88 69.0 0.0 0.0 --- 0.00 29.828
06/15/2004 12:00 a 74.0 72.4 72.4 72.7 72.2 89 69.0 0.0 0.0 --- 0.00 29.820
06/15/2004 12:30 a 74.0 72.2 72.2 72.3 72.1 89 68.8 0.0 2.0 WSW 0.00 29.820
06/15/2004 1:00 a 74.2 72.1 72.1 72.4 71.8 91 69.3 0.0 1.0 WSW 0.00 29.815
06/15/2004 1:30 a 74.2 71.7 71.7 71.8 71.6 91 68.9 0.0 0.0 --- 0.00 29.806
06/15/2004 2:00 a 74.0 71.8 71.8 72.1 71.7 90 68.7 0.0 2.0 SW 0.00 29.804
06/15/2004 2:30 a 74.4 71.9 71.9 72.1 71.6 92 69.5 0.0 1.0 --- 0.00 29.805
06/15/2004 3:00 a 74.4 71.5 71.5 71.6 71.3 92 69.1 0.0 0.0 --- 0.00 29.814
06/15/2004 3:30 a 73.4 70.8 70.8 71.3 70.5 92 68.4 0.0 0.0 --- 0.00 29.798
06/15/2004 4:00 a 74.0 69.5 69.5 70.5 68.7 100 69.5 0.0 0.0 --- 0.00 29.801
06/15/2004 4:30 a 70.0 68.3 68.3 68.7 68.0 100 68.3 0.0 0.0 --- 0.00 29.821
06/15/2004 5:00 a 67.9 67.9 67.9 68.0 67.7 100 67.9 0.0 0.0 --- 0.00 29.827
06/15/2004 5:30 a 67.7 67.7 67.7 67.8 67.4 100 67.7 0.0 0.0 --- 0.00 29.832
06/15/2004 6:00 a 67.2 67.2 67.2 67.5 67.0 100 67.2 0.0 0.0 --- 0.00 29.831
06/15/2004 6:30 a 67.4 67.4 67.4 68.0 67.0 100 67.4 0.0 0.0 --- 0.00 29.847
06/15/2004 7:00 a 72.0 68.6 68.6 69.0 68.0 100 68.6 0.0 0.0 --- 0.00 29.846
06/15/2004 7:30 a 73.8 70.5 70.5 72.8 69.0 94 68.7 0.0 0.0 --- 0.00 29.850
06/15/2004 8:00 a 75.0 72.6 72.6 74.6 71.4 88 68.8 0.0 2.0 S 0.00 29.859
06/15/2004 8:30 a 76.0 73.9 73.9 74.6 73.6 88 70.1 0.0 1.0 SSW 0.00 29.866
06/15/2004 9:00 a 76.0 74.3 74.3 75.4 73.8 85 69.5 0.0 1.0 SSE 0.00 29.871
06/15/2004 9:30 a 79.0 75.6 75.6 76.8 74.8 80 69.0 0.0 2.0 SSE 0.00 29.863
06/15/2004 10:00 a 80.4 77.7 77.7 78.7 76.8 72 68.0 0.0 2.0 S 0.00 29.867
06/15/2004 10:30 a 82.5 80.1 80.1 80.9 78.7 65 67.3 0.0 1.0 ESE 0.00 29.859
06/15/2004 11:00 a 83.2 81.2 81.2 81.7 80.8 61 66.5 0.0 2.0 ESE 0.00 29.865
06/15/2004 11:30 a 84.0 82.1 82.1 83.4 81.4 60 66.9 0.0 2.0 ESE 0.00 29.862
06/15/2004 12:00 p 91.2 86.6 86.6 88.8 83.3 54 68.0 0.0 2.0 E 0.00 29.859
06/15/2004 12:30 p 96.0 92.6 92.6 96.3 87.6 40 64.8 0.0 2.0 SSW 0.00 29.852
06/15/2004 1:00 p 103.0 97.0 97.0 97.4 96.1 40 68.7 0.0 2.0 SSW 0.00 29.847
06/15/2004 1:30 p 102.6 96.5 96.5 97.7 95.1 39 67.5 0.0 3.0 SE 0.00 29.843
06/15/2004 2:00 p 104.0 94.5 94.5 97.9 91.7 50 73.0 0.0 2.0 E 0.00 29.846
06/16/2004 11:30 p 75.0 73.2 73.2 73.6 72.9 83 67.7 0.0 0.0 --- 0.00 29.912
06/17/2004 12:00 a 74.0 72.3 72.3 72.9 72.2 85 67.5 0.0 0.0 --- 0.00 29.914
06/17/2004 12:30 a 75.0 72.5 72.5 72.7 72.2 86 68.1 0.0 0.0 --- 0.00 29.908
06/17/2004 1:00 a 75.0 72.6 72.6 72.8 72.3 88 68.8 0.0 0.0 --- 0.00 29.911
06/17/2004 1:30 a 74.0 72.1 72.1 72.3 71.9 89 68.7 0.0 0.0 --- 0.00 29.904
06/17/2004 2:00 a 74.2 72.0 72.0 72.2 71.8 91 69.2 0.0 0.0 --- 0.00 29.911
06/17/2004 2:30 a 74.2 72.1 72.1 72.1 72.0 91 69.3 0.0 0.0 --- 0.00 29.910
06/17/2004 3:00 a 74.0 72.4 72.4 72.6 72.1 90 69.3 0.0 0.0 --- 0.00 29.900
06/17/2004 3:30 a 75.4 72.5 72.5 72.7 72.2 92 70.0 0.0 0.0 --- 0.00 29.893
06/17/2004 4:00 a 74.8 71.8 71.8 72.2 71.2 94 70.0 0.0 0.0 --- 0.00 29.880
06/17/2004 4:30 a 73.8 71.0 71.0 71.2 70.8 94 69.2 0.0 0.0 --- 0.00 29.877
06/17/2004 5:00 a 73.8 71.0 71.0 71.0 70.9 94 69.2 0.0 0.0 --- 0.00 29.867
06/17/2004 5:30 a 73.8 71.0 71.0 71.1 71.0 94 69.2 0.0 0.0 --- 0.00 29.875
06/17/2004 6:00 a 74.0 71.1 71.1 71.1 71.0 95 69.6 0.0 0.0 --- 0.00 29.871
06/17/2004 6:30 a 74.2 70.8 70.8 71.0 70.6 96 69.6 0.0 0.0 --- 0.00 29.866
06/17/2004 7:00 a 73.8 71.4 71.4 72.6 70.7 94 69.6 0.0 0.0 --- 0.00 29.862
06/17/2004 7:30 a 76.0 74.4 74.4 75.8 72.6 89 71.0 0.0 0.0 --- 0.00 29.861
06/17/2004 8:00 a 79.7 75.9 75.9 76.3 75.2 87 71.8 0.0 0.0 --- 0.00 29.872
06/17/2004 8:30 a 81.0 76.8 76.8 77.5 76.2 85 72.0 0.0 0.0 --- 0.00 29.872
06/17/2004 9:00 a 82.3 78.1 78.1 78.5 77.5 83 72.5 0.0 0.0 --- 0.00 29.870
06/17/2004 9:30 a 83.0 79.2 79.2 80.3 78.5 80 72.5 0.0 0.0 --- 0.00 29.864
06/17/2004 10:00 a 86.2 81.3 81.3 82.0 80.3 76 73.0 0.0 2.0 E 0.00 29.853
06/17/2004 10:30 a 89.8 83.0 83.0 83.6 82.0 74 73.9 0.0 2.0 E 0.00 29.846
06/17/2004 11:00 a 91.0 84.3 84.3 84.9 83.6 70 73.5 0.0 1.0 --- 0.00 29.846
06/17/2004 11:30 a 94.8 83.7 83.7 85.0 82.7 82 77.6 0.0 2.0 NE 0.00 29.839
06/17/2004 12:00 p 95.4 85.9 85.9 88.1 83.0 71 75.4 0.0 2.0 NE 0.00 29.837
06/17/2004 12:30 p 94.6 85.7 85.7 87.6 84.0 69 74.4 0.0 0.0 --- 0.00 29.833
06/17/2004 1:00 p 97.8 89.7 89.7 93.5 85.3 57 72.5 0.0 2.0 ENE 0.00 29.810
06/17/2004 1:30 p 97.0 90.3 90.3 91.8 89.4 55 72.0 0.0 1.0 WNW 0.00 29.797
06/17/2004 2:00 p 102.1 92.6 92.6 93.7 91.6 53 73.0 0.0 2.0 SSW 0.00 29.786
06/17/2004 2:30 p 98.2 89.8 89.8 93.3 88.1 58 73.1 0.0 3.0 SSE 0.00 29.779
06/17/2004 3:00 p 100.8 89.9 89.9 92.0 87.9 63 75.6 0.0 2.0 SSE 0.00 29.774
06/17/2004 3:30 p 93.8 85.9 85.9 87.8 85.1 67 73.7 0.0 1.0 --- 0.00 29.768
06/17/2004 4:00 p 92.2 86.3 86.3 88.6 84.9 63 72.2 0.0 2.0 SSE 0.00 29.754
06/17/2004 4:30 p 97.0 88.4 88.4 89.0 87.0 65 75.1 0.0 2.0 NE 0.00 29.752
06/17/2004 5:00 p 96.2 86.6 86.6 87.0 85.7 68 74.8 0.0 0.0 --- 0.00 29.735
06/17/2004 5:30 p 92.6 86.4 86.4 87.1 85.7 64 72.8 0.0 2.0 E 0.00 29.737
06/17/2004 6:00 p 94.6 85.7 85.7 86.4 84.8 69 74.4 0.0 0.0 --- 0.00 29.731
06/17/2004 6:30 p 89.2 83.2 83.2 84.8 80.2 71 72.8 0.0 2.0 NNE 0.00 29.744
06/17/2004 7:00 p 82.4 78.6 78.6 80.1 77.7 77 70.8 0.0 3.0 NNE 0.00 29.757
06/17/2004 7:30 p 80.8 77.3 77.3 77.7 76.7 79 70.3 0.0 1.0 N 0.00 29.759
06/17/2004 8:00 p 80.0 76.0 76.0 76.7 75.2 90 72.9 0.0 1.0 --- 0.00 29.772
06/17/2004 8:30 p 77.0 73.0 73.0 75.2 72.2 100 73.0 0.0 2.0 N 0.05 29.776
06/17/2004 9:00 p 76.0 72.0 72.0 72.3 71.8 100 72.0 0.0 2.0 N 0.08 29.758
06/17/2004 9:30 p 76.0 71.9 71.9 72.3 71.1 100 71.9 0.0 1.0 --- 0.05 29.774
06/17/2004 10:00 p 75.0 70.8 70.8 71.2 70.5 100 70.8 0.0 0.0 --- 0.04 29.774
06/17/2004 10:30 p 74.0 70.2 70.2 70.5 70.1 100 70.2 0.0 1.0 --- 0.05 29.770
06/17/2004 11:00 p 74.0 70.2 70.2 70.2 70.1 100 70.2 0.0 0.0 --- 0.02 29.764
06/17/2004 11:30 p 74.0 70.1 70.1 70.3 70.1 100 70.1 0.0 0.0 --- 0.01 29.746
06/18/2004 12:00 a 74.0 70.1 70.1 70.2 70.0 100 70.1 0.0 2.0 N 0.03 29.750
06/18/2004 12:30 a 74.0 69.9 69.9 70.1 69.7 100 69.9 0.0 0.0 --- 0.01 29.751
06/18/2004 1:00 a 74.0 69.6 69.6 69.7 69.5 100 69.6 0.0 0.0 --- 0.00 29.738
06/18/2004 1:30 a 72.0 69.3 69.3 69.5 69.2 100 69.3 0.0 0.0 --- 0.00 29.736
06/18/2004 2:00 a 72.0 69.1 69.1 69.2 69.0 100 69.1 0.0 0.0 --- 0.00 29.736
06/18/2004 2:30 a 72.0 69.0 69.0 69.1 68.9 100 69.0 0.0 0.0 --- 0.00 29.734
06/18/2004 3:00 a 72.0 68.9 68.9 69.0 68.7 100 68.9 0.0 0.0 --- 0.00 29.721
06/18/2004 3:30 a 72.0 68.6 68.6 68.7 68.5 100 68.6 0.0 0.0 --- 0.00 29.722
06/18/2004 4:00 a 70.0 68.3 68.3 68.5 68.3 100 68.3 0.0 0.0 --- 0.00 29.714
06/18/2004 4:30 a 70.0 68.2 68.2 68.4 68.0 100 68.2 0.0 0.0 --- 0.00 29.709
06/18/2004 5:00 a 67.9 67.9 67.9 68.0 67.8 100 67.9 0.0 0.0 --- 0.00 29.713
06/18/2004 5:30 a 70.0 68.2 68.2 68.3 67.8 100 68.2 0.0 0.0 --- 0.00 29.715
06/18/2004 6:00 a 72.0 68.5 68.5 68.8 68.3 100 68.5 0.0 0.0 --- 0.00 29.731
06/18/2004 6:30 a 72.0 69.2 69.2 69.5 68.8 100 69.2 0.0 2.0 N 0.00 29.731
06/18/2004 7:00 a 74.0 69.9 69.9 70.4 69.5 100 69.9 0.0 1.0 N 0.00 29.739
06/18/2004 7:30 a 76.0 71.5 71.5 73.5 70.4 100 71.5 0.0 0.0 --- 0.00 29.747
06/18/2004 8:00 a 77.0 73.2 73.2 73.9 72.7 100 73.2 0.0 2.0 N 0.00 29.757
06/18/2004 8:30 a 78.0 73.5 73.5 73.9 73.0 100 73.5 0.0 2.0 N 0.00 29.755
06/18/2004 9:00 a 78.0 73.6 73.6 73.9 73.4 100 73.6 0.0 1.0 N 0.00 29.756
06/18/2004 9:30 a 79.0 74.8 74.8 75.5 73.7 100 74.8 0.0 2.0 N 0.00 29.755
06/18/2004 10:00 a 82.0 76.9 76.9 77.8 75.5 100 76.9 0.0 4.0 SSE 0.00 29.743
06/18/2004 10:30 a 84.0 77.9 77.9 78.3 77.5 100 77.9 0.0 2.0 SSE 0.00 29.740
06/18/2004 11:00 a 87.0 78.9 78.9 79.7 78.1 100 78.9 0.0 4.0 SSE 0.00 29.732
06/18/2004 11:30 a 90.0 80.2 80.2 81.1 79.2 100 80.2 0.0 3.0 SSE 0.00 29.728
06/18/2004 12:00 p 96.2 82.7 82.7 85.1 80.9 93 80.5 0.0 3.0 SSE 0.00 29.727
06/18/2004 12:30 p 104.1 86.6 86.6 92.1 82.8 83 80.8 0.0 3.0 SSE 0.00 29.721
06/18/2004 1:00 p 105.9 91.2 91.2 92.9 88.7 67 78.7 0.0 2.0 ESE 0.00 29.720
06/18/2004 1:30 p 102.8 93.1 93.1 95.6 88.8 54 74.0 0.0 2.0 E 0.00 29.719
06/18/2004 2:00 p 105.8 96.2 96.2 97.5 94.4 48 73.3 0.0 2.0 SE 0.00 29.699
06/18/2004 2:30 p 104.9 94.8 94.8 97.3 92.4 51 73.9 0.0 2.0 SE 0.00 29.703
06/18/2004 3:00 p 108.0 95.6 95.6 96.2 94.5 51 74.6 0.0 3.0 SSE 0.00 29.700
06/18/2004 3:30 p 107.0 95.7 95.7 96.8 93.7 50 74.1 0.0 3.0 SSE 0.00 29.694
06/18/2004 4:00 p 98.0 90.5 90.5 93.7 89.1 54 71.6 0.0 2.0 SE 0.00 29.682
06/18/2004 4:30 p 96.7 89.4 89.4 90.1 87.5 59 73.2 0.0 2.0 SE 0.00 29.674
06/18/2004 5:00 p 93.0 86.6 86.6 87.6 85.8 60 71.1 0.0 3.0 SE 0.00 29.679
06/18/2004 5:30 p 92.4 87.4 87.4 87.7 87.0 58 70.8 0.0 2.0 ESE 0.00 29.678
06/18/2004 6:00 p 92.2 86.2 86.2 87.0 85.5 63 72.1 0.0 1.0 SE 0.00 29.671
06/18/2004 6:30 p 90.2 84.7 84.7 85.4 84.2 63 70.7 0.0 2.0 ESE 0.00 29.683
06/18/2004 7:00 p 89.0 83.8 83.8 84.2 83.3 65 70.8 0.0 1.0 N 0.00 29.678
06/18/2004 7:30 p 88.2 83.1 83.1 83.3 82.9 68 71.5 0.0 0.0 --- 0.00 29.685
06/18/2004 8:00 p 87.2 82.2 82.2 82.9 81.6 71 71.9 0.0 0.0 --- 0.00 29.685
06/18/2004 8:30 p 86.0 80.6 80.6 81.6 79.5 75 71.9 0.0 0.0 --- 0.00 29.690
06/18/2004 9:00 p 82.4 79.0 79.0 79.4 78.5 77 71.2 0.0 0.0 --- 0.00 29.692
06/18/2004 9:30 p 82.0 77.9 77.9 78.5 77.4 80 71.2 0.0 0.0 --- 0.00 29.698
06/18/2004 10:00 p 81.0 77.2 77.2 77.4 76.6 82 71.3 0.0 0.0 --- 0.00 29.695
06/18/2004 10:30 p 79.5 75.7 75.7 76.6 75.1 85 70.9 0.0 0.0 --- 0.00 29.696
06/18/2004 11:00 p 79.3 75.7 75.7 75.9 75.4 83 70.2 0.0 0.0 --- 0.00 29.689
06/18/2004 11:30 p 77.5 75.0 75.0 75.6 74.4 85 70.2 0.0 0.0 --- 0.00 29.689
06/19/2004 12:00 a 76.0 74.3 74.3 74.4 74.2 86 69.8 0.0 0.0 --- 0.00 29.698
06/19/2004 12:30 a 76.0 74.3 74.3 74.4 74.0 88 70.5 0.0 0.0 --- 0.00 29.693
06/19/2004 1:00 a 76.2 73.5 73.5 74.0 72.7 91 70.7 0.0 0.0 --- 0.00 29.687
06/19/2004 1:30 a 74.6 72.2 72.2 72.7 72.0 93 70.1 0.0 0.0 --- 0.00 29.687
06/19/2004 2:00 a 75.0 71.6 71.6 72.1 71.1 95 70.1 0.0 0.0 --- 0.00 29.686
06/19/2004 2:30 a 74.4 70.8 70.8 71.1 70.5 97 69.9 0.0 0.0 --- 0.00 29.687
06/19/2004 3:00 a 74.8 70.5 70.5 70.6 70.2 99 70.2 0.0 0.0 --- 0.00 29.684
06/19/2004 3:30 a 73.8 70.3 70.3 70.4 70.2 99 70.0 0.0 0.0 --- 0.00 29.687
06/19/2004 4:00 a 74.0 69.9 69.9 70.3 69.6 100 69.9 0.0 0.0 --- 0.00 29.681
06/19/2004 4:30 a 74.0 69.5 69.5 69.7 69.3 100 69.5 0.0 0.0 --- 0.00 29.673
06/19/2004 5:00 a 72.0 69.1 69.1 69.3 68.9 100 69.1 0.0 0.0 --- 0.00 29.674
06/19/2004 5:30 a 72.0 68.8 68.8 68.9 68.7 100 68.8 0.0 0.0 --- 0.00 29.680
06/19/2004 6:00 a 72.0 68.9 68.9 68.9 68.8 100 68.9 0.0 0.0 --- 0.00 29.686
06/19/2004 6:30 a 71.6 69.4 69.4 70.7 68.8 96 68.2 0.0 0.0 --- 0.00 29.692
06/19/2004 7:00 a 74.2 70.8 70.8 70.9 70.6 96 69.6 0.0 0.0 --- 0.00 29.688
06/19/2004 7:30 a 74.0 72.1 72.1 74.2 70.8 84 67.0 0.0 0.0 --- 0.00 29.686
06/19/2004 8:00 a 77.0 75.0 75.0 75.8 74.2 79 68.1 0.0 2.0 SE 0.00 29.686
06/19/2004 8:30 a 78.9 75.7 75.7 76.4 75.3 79 68.7 0.0 2.0 SE 0.00 29.686
06/19/2004 9:00 a 78.6 75.8 75.8 76.1 75.4 76 67.7 0.0 1.0 SE 0.00 29.686
06/19/2004 9:30 a 78.3 76.0 76.0 76.8 75.4 73 66.7 0.0 2.0 SE 0.00 29.694
06/19/2004 10:00 a 78.2 76.1 76.1 76.8 75.4 72 66.4 0.0 3.0 SE 0.00 29.692
06/19/2004 10:30 a 77.8 76.6 76.6 78.2 75.3 64 63.5 0.0 2.0 SSE 0.00 29.688
06/19/2004 11:00 a 81.0 78.5 78.5 78.7 78.2 63 64.9 0.0 3.0 SSE 0.00 29.683
06/19/2004 11:30 a 80.6 79.1 79.1 79.7 78.6 58 63.1 0.0 3.0 SSE 0.00 29.678
06/19/2004 12:00 p 81.4 79.5 79.5 80.2 79.0 57 62.9 0.0 3.0 SSE 0.00 29.675
06/19/2004 12:30 p 81.4 81.8 81.8 88.5 79.5 37 53.0 0.0 3.0 SSE 0.00 29.683
06/19/2004 1:00 p 87.3 88.7 88.7 91.9 86.0 31 54.2 0.0 3.0 SSE 0.00 29.676
06/19/2004 1:30 p 93.0 92.8 92.8 93.6 91.9 30 56.8 0.0 4.0 SSE 0.00 29.677
06/19/2004 2:00 p 87.9 86.8 86.8 92.6 82.5 43 61.6 0.0 3.0 SSE 0.00 29.670
06/19/2004 2:30 p 86.4 86.7 86.7 88.9 82.9 37 57.3 0.0 4.0 SE 0.00 29.661
06/19/2004 3:00 p 85.4 83.6 83.6 87.8 81.4 47 61.3 1.0 3.0 SE 0.00 29.669
06/19/2004 3:30 p 81.0 80.8 80.8 83.1 79.6 50 60.4 0.0 3.0 SSE 0.00 29.666
06/19/2004 4:00 p 82.6 81.6 81.6 81.9 81.4 46 58.8 1.0 4.0 SSE 0.00 29.670
06/19/2004 4:30 p 81.0 80.6 80.6 81.6 80.1 48 59.1 1.0 3.0 SSE 0.00 29.660
06/19/2004 5:00 p 80.0 80.4 80.4 81.1 79.6 48 58.9 1.0 4.0 SSE 0.00 29.673
06/19/2004 5:30 p 79.0 78.5 78.5 79.6 77.7 50 58.3 0.0 3.0 SSE 0.00 29.662
06/19/2004 6:00 p 77.0 76.9 76.9 77.8 76.1 52 58.0 1.0 4.0 SSE 0.00 29.669
06/19/2004 6:30 p 76.0 76.2 76.2 76.4 76.1 51 56.8 0.0 4.0 SSE 0.00 29.671
06/19/2004 7:00 p 76.0 75.6 75.6 76.1 75.4 54 57.8 0.0 3.0 SSE 0.00 29.669
06/19/2004 7:30 p 75.0 75.0 75.0 75.5 74.6 50 55.1 0.0 2.0 SSE 0.00 29.683
06/19/2004 8:00 p 74.0 74.2 74.2 74.6 73.9 51 54.9 0.0 3.0 SSE 0.00 29.689
06/19/2004 8:30 p 73.0 73.0 73.0 73.9 72.0 50 53.3 0.0 2.0 S 0.00 29.712
06/19/2004 9:00 p 69.0 70.9 70.9 72.0 70.0 48 50.3 0.0 3.0 SSE 0.00 29.733
06/19/2004 9:30 p 67.0 69.4 69.4 70.0 68.8 46 47.7 0.0 2.0 SSE 0.00 29.745
06/19/2004 10:00 p 66.0 68.2 68.2 68.8 67.5 46 46.7 0.0 1.0 SSE 0.00 29.764
06/19/2004 10:30 p 67.2 67.2 67.2 67.5 66.9 45 45.2 0.0 2.0 S 0.00 29.784
06/19/2004 11:00 p 66.4 66.4 66.4 66.9 65.8 48 46.1 0.0 4.0 SSE 0.00 29.789
06/19/2004 11:30 p 65.2 65.2 65.2 65.8 64.5 46 43.9 1.0 3.0 SSE 0.00 29.803
06/20/2004 12:00 a 63.9 63.9 63.9 64.5 63.4 48 43.8 0.0 3.0 SSE 0.00 29.800
06/20/2004 12:30 a 62.8 62.8 62.8 63.4 62.4 48 42.8 0.0 3.0 SSE 0.00 29.808
06/20/2004 1:00 a 62.1 62.1 62.1 62.4 61.8 50 43.3 0.0 3.0 SSE 0.00 29.806
06/20/2004 1:30 a 61.4 61.4 61.4 61.8 60.9 52 43.6 0.0 3.0 SSE 0.00 29.815
06/20/2004 2:00 a 60.6 60.6 60.6 60.9 60.3 54 43.9 1.0 3.0 SSE 0.00 29.818
06/20/2004 2:30 a 59.9 59.9 59.9 60.3 59.4 56 44.2 0.0 3.0 SSE 0.00 29.813
06/20/2004 3:00 a 59.1 59.1 59.1 59.4 58.7 59 44.8 0.0 3.0 SSE 0.00 29.821
06/20/2004 3:30 a 58.4 58.4 58.4 58.7 58.1 60 44.6 0.0 3.0 SSE 0.00 29.822
06/20/2004 4:00 a 57.9 57.9 57.9 58.2 57.4 61 44.5 0.0 2.0 SSE 0.00 29.844
06/20/2004 4:30 a 57.2 57.2 57.2 57.4 56.8 63 44.7 0.0 2.0 SSE 0.00 29.849
06/20/2004 5:00 a 56.6 56.6 56.6 56.8 56.2 65 45.0 0.0 1.0 --- 0.00 29.864
06/20/2004 5:30 a 55.5 55.5 55.5 56.2 54.2 72 46.6 0.0 0.0 --- 0.00 29.877
06/20/2004 6:00 a 53.3 53.3 53.3 54.2 52.5 80 47.3 0.0 0.0 --- 0.00 29.886
06/20/2004 6:30 a 52.7 52.7 52.7 53.1 52.5 80 46.7 0.0 0.0 --- 0.00 29.897
06/20/2004 7:00 a 54.5 54.5 54.5 55.6 53.1 72 45.7 0.0 0.0 --- 0.00 29.898
06/20/2004 7:30 a 57.6 57.6 57.6 61.2 55.6 60 43.8 0.0 1.0 --- 0.00 29.913
06/20/2004 8:00 a 61.5 61.5 61.5 62.6 60.1 57 46.1 0.0 2.0 SSE 0.00 29.920
06/20/2004 8:30 a 61.0 61.0 61.0 61.9 60.3 59 46.6 0.0 2.0 SSE 0.00 29.918
06/20/2004 9:00 a 61.2 61.2 61.2 62.3 60.4 56 45.4 0.0 2.0 SE 0.00 29.914
06/20/2004 9:30 a 62.7 62.7 62.7 63.4 62.2 53 45.3 0.0 2.0 SE 0.00 29.911
06/20/2004 10:00 a 64.1 64.1 64.1 64.8 63.3 50 45.1 0.0 2.0 SSE 0.00 29.907
06/20/2004 10:30 a 65.6 65.6 65.6 66.2 64.8 42 41.9 0.0 2.0 SSE 0.00 29.897
06/20/2004 11:00 a 66.6 66.6 66.6 67.3 66.1 42 42.8 0.0 2.0 SSE 0.00 29.898
06/20/2004 11:30 a 67.6 67.6 67.6 69.3 66.8 39 41.8 0.0 2.0 SE 0.00 29.896
06/20/2004 12:00 p 69.3 72.1 72.1 74.1 69.2 33 41.4 0.0 3.0 SSE 0.00 29.889
06/20/2004 12:30 p 78.0 79.5 79.5 84.4 73.1 23 38.5 0.0 3.0 SE 0.00 29.881
06/20/2004 1:00 p 81.3 83.7 83.7 85.0 82.8 23 42.0 1.0 8.0 SSE 0.00 29.876
06/20/2004 1:30 p 81.2 85.3 85.3 86.2 84.4 21 41.0 0.0 3.0 SSE 0.00 29.871
06/20/2004 2:00 p 81.7 84.0 84.0 86.5 81.2 27 46.5 0.0 3.0 SSE 0.00 29.865
06/20/2004 2:30 p 81.0 82.6 82.6 84.5 80.8 23 41.1 0.0 3.0 SSE 0.00 29.853
06/20/2004 3:00 p 80.0 82.4 82.4 84.9 79.0 27 45.1 0.0 3.0 SSE 0.00 29.841
06/20/2004 3:30 p 81.0 82.7 82.7 83.8 80.3 27 45.4 0.0 3.0 SSE 0.00 29.838
06/20/2004 4:00 p 75.0 77.2 77.2 82.7 73.7 33 45.9 0.0 3.0 SE 0.00 29.834
06/20/2004 4:30 p 73.0 74.5 74.5 75.5 73.2 34 44.3 0.0 3.0 ESE 0.00 29.825
06/20/2004 5:00 p 72.0 73.6 73.6 75.4 71.8 33 42.8 0.0 3.0 SE 0.00 29.825
06/20/2004 5:30 p 72.0 73.5 73.5 74.8 72.6 35 44.2 0.0 3.0 SSE 0.00 29.825
06/20/2004 6:00 p 71.0 72.5 72.5 73.2 71.6 36 44.1 0.0 2.0 SE 0.00 29.820
06/20/2004 6:30 p 69.7 71.6 71.6 71.9 71.1 37 44.0 0.0 2.0 ESE 0.00 29.821
06/20/2004 7:00 p 68.0 70.2 70.2 71.1 69.5 40 44.8 0.0 3.0 SE 0.00 29.825
06/20/2004 7:30 p 67.0 69.3 69.3 69.7 69.0 44 46.5 0.0 0.0 --- 0.00 29.829
06/20/2004 8:00 p 66.0 68.0 68.0 68.9 66.9 49 48.1 0.0 0.0 --- 0.00 29.833
06/20/2004 8:30 p 65.2 65.2 65.2 66.8 63.7 57 49.6 0.0 0.0 --- 0.00 29.835
06/20/2004 9:00 p 62.6 62.6 62.6 63.7 61.6 63 49.8 0.0 0.0 --- 0.00 29.840
06/20/2004 9:30 p 60.7 60.7 60.7 61.6 59.9 68 50.1 0.0 0.0 --- 0.00 29.847
06/20/2004 10:00 p 58.9 58.9 58.9 59.9 58.2 73 50.3 0.0 0.0 --- 0.00 29.851
06/20/2004 10:30 p 57.3 57.3 57.3 58.3 56.8 78 50.5 0.0 0.0 --- 0.00 29.852
06/20/2004 11:00 p 56.4 56.4 56.4 56.8 56.0 80 50.3 0.0 0.0 --- 0.00 29.852
06/20/2004 11:30 p 55.5 55.5 55.5 56.0 55.0 83 50.4 0.0 0.0 --- 0.00 29.853
06/21/2004 12:00 a 54.6 54.6 54.6 55.1 54.3 86 50.5 0.0 0.0 --- 0.00 29.852
06/21/2004 12:30 a 54.1 54.1 54.1 54.4 53.7 87 50.3 0.0 0.0 --- 0.00 29.850
06/21/2004 1:00 a 53.5 53.5 53.5 53.7 53.2 90 50.6 0.0 0.0 --- 0.00 29.851
06/21/2004 1:30 a 52.8 52.8 52.8 53.2 52.5 91 50.3 0.0 0.0 --- 0.00 29.855
06/21/2004 2:00 a 52.4 52.4 52.4 52.6 52.1 94 50.7 0.0 0.0 --- 0.00 29.856
06/21/2004 2:30 a 52.2 52.2 52.2 52.4 52.0 94 50.5 0.0 0.0 --- 0.00 29.856
06/21/2004 3:00 a 51.7 51.7 51.7 52.1 51.5 95 50.3 0.0 0.0 --- 0.00 29.865
06/21/2004 3:30 a 51.4 51.4 51.4 51.5 51.2 94 49.7 0.0 0.0 --- 0.00 29.856
06/21/2004 4:00 a 51.1 51.1 51.1 51.2 50.9 95 49.7 0.0 0.0 --- 0.00 29.858
06/21/2004 4:30 a 50.7 50.7 50.7 50.9 50.5 95 49.3 0.0 0.0 --- 0.00 29.864
06/21/2004 5:00 a 50.3 50.3 50.3 50.5 50.2 96 49.2 0.0 0.0 --- 0.00 29.863
06/21/2004 5:30 a 50.2 50.2 50.2 50.3 50.0 95 48.8 0.0 0.0 --- 0.00 29.875